MOUNT RAINIER
GEOLOGY & WEATHER
Hello guest! [ Log In ]
csv data for Nisqually River at Longmire

Nisqually River at Longmire

Date Range to view:
 
[ Graphical View | Weather History ]

GMT Datetime,Local Datetime,Stage (ft),Rainfall (in),Turbidity (ntu),Air Temperature (°C),Dew Point Temperature (°C),Water Temperature (°C),Enclosure Temperature (°C),Turbidity Temperature (°C),10-hour Fuel Temperature (°C),Relative Humidity (%),,Water Conductivity (μS/cm),Air Level (ft),Water Level (psi),Battery (V)
2022-05-18 07:00:00,2022-05-18 00:00:00,-999.0000,63.23,-999.00,5.9000,4.5430,-999.0000,5.0,-999,5.7,91.0,,-999.0000,30.8320,-999.0000,12.8
2022-05-18 07:15:00,2022-05-18 00:15:00,-999.0000,63.23,-999.00,5.8000,4.4441,-999.0000,5.0,-999,5.7,91.0,,-999.0000,30.8290,-999.0000,12.7
2022-05-18 07:30:00,2022-05-18 00:30:00,-999.0000,63.23,-999.00,5.8000,4.6005,-999.0000,5.0,-999,5.7,92.0,,-999.0000,30.8220,-999.0000,12.7
2022-05-18 07:45:00,2022-05-18 00:45:00,-999.0000,63.23,-999.00,5.8000,4.1268,-999.0000,5.0,-999,5.7,89.0,,-999.0000,30.8190,-999.0000,12.7
2022-05-18 08:00:00,2022-05-18 01:00:00,-999.0000,63.23,-999.00,5.9000,4.3850,-999.0000,4.8,-999,5.7,90.0,,-999.0000,30.8160,-999.0000,12.7
2022-05-18 08:15:00,2022-05-18 01:15:00,-999.0000,63.23,-999.00,5.9000,4.5430,-999.0000,5.0,-999,5.7,91.0,,-999.0000,30.8120,-999.0000,12.7
2022-05-18 08:30:00,2022-05-18 01:30:00,-999.0000,63.23,-999.00,5.8000,4.2862,-999.0000,5.0,-999,5.6,90.0,,-999.0000,30.8090,-999.0000,12.7
2022-05-18 08:45:00,2022-05-18 01:45:00,-999.0000,63.23,-999.00,5.8000,4.2862,-999.0000,4.8,-999,5.6,90.0,,-999.0000,30.7990,-999.0000,12.7
2022-05-18 09:00:00,2022-05-18 02:00:00,-999.0000,63.23,-999.00,5.6000,4.0886,-999.0000,4.8,-999,5.5,90.0,,-999.0000,30.7920,-999.0000,12.7
2022-05-18 09:15:00,2022-05-18 02:15:00,-999.0000,63.23,-999.00,5.6000,3.7687,-999.0000,4.8,-999,5.4,88.0,,-999.0000,30.7820,-999.0000,12.7
2022-05-18 09:30:00,2022-05-18 02:30:00,-999.0000,63.23,-999.00,5.5000,3.8308,-999.0000,4.8,-999,5.3,89.0,,-999.0000,30.7750,-999.0000,12.7
2022-05-18 09:45:00,2022-05-18 02:45:00,-999.0000,63.23,-999.00,5.5000,3.9899,-999.0000,4.8,-999,5.4,90.0,,-999.0000,30.7620,-999.0000,12.7
2022-05-18 10:00:00,2022-05-18 03:00:00,-999.0000,63.23,-999.00,5.5000,3.8308,-999.0000,4.6,-999,5.4,89.0,,-999.0000,30.7650,-999.0000,12.7
2022-05-18 10:15:00,2022-05-18 03:15:00,-999.0000,63.23,-999.00,5.5000,3.9899,-999.0000,4.6,-999,5.3,90.0,,-999.0000,30.7720,-999.0000,12.7
2022-05-18 10:30:00,2022-05-18 03:30:00,-999.0000,63.23,-999.00,5.2000,4.3130,-999.0000,4.8,-999,5.1,94.0,,-999.0000,30.7790,-999.0000,12.7
2022-05-18 10:45:00,2022-05-18 03:45:00,-999.0000,63.23,-999.00,5.1000,4.5146,-999.0000,4.6,-999,5.0,96.0,,-999.0000,30.7890,-999.0000,12.7
2022-05-18 11:00:00,2022-05-18 04:00:00,-999.0000,63.25,-999.00,4.9000,4.4636,-999.0000,4.6,-999,4.8,97.0,,-999.0000,30.7790,-999.0000,12.7
2022-05-18 11:15:00,2022-05-18 04:15:00,-999.0000,63.27,-999.00,4.6000,4.3111,-999.0000,4.4,-999,4.4,98.0,,-999.0000,30.7550,-999.0000,12.7
2022-05-18 11:30:00,2022-05-18 04:30:00,-999.0000,63.29,-999.00,4.4000,4.1116,-999.0000,4.3,-999,4.3,98.0,,-999.0000,30.7620,-999.0000,12.7
2022-05-18 11:45:00,2022-05-18 04:45:00,-999.0000,63.31,-999.00,4.4000,4.2564,-999.0000,4.1,-999,4.2,99.0,,-999.0000,30.7550,-999.0000,12.6
2022-05-18 12:00:00,2022-05-18 05:00:00,-999.0000,63.37,-999.00,4.3000,4.1565,-999.0000,3.9,-999,4.1,99.0,,-999.0000,30.7490,-999.0000,12.7
2022-05-18 12:15:00,2022-05-18 05:15:00,-999.0000,63.41,-999.00,4.4000,4.4000,-999.0000,3.9,-999,4.1,100.0,,-999.0000,30.7250,-999.0000,12.6
2022-05-18 12:30:00,2022-05-18 05:30:00,-999.0000,63.45,-999.00,4.4000,4.4000,-999.0000,3.9,-999,4.2,100.0,,-999.0000,30.7320,-999.0000,12.6
2022-05-18 12:45:00,2022-05-18 05:45:00,-999.0000,63.46,-999.00,4.5000,4.5000,-999.0000,3.7,-999,4.2,100.0,,-999.0000,30.7290,-999.0000,12.7
2022-05-18 13:00:00,2022-05-18 06:00:00,-999.0000,63.47,-999.00,4.5000,4.5000,-999.0000,3.7,-999,4.3,100.0,,-999.0000,30.7350,-999.0000,12.6
2022-05-18 13:15:00,2022-05-18 06:15:00,-999.0000,63.48,-999.00,4.6000,4.6000,-999.0000,3.7,-999,4.4,100.0,,-999.0000,30.7250,-999.0000,12.6
2022-05-18 13:30:00,2022-05-18 06:30:00,-999.0000,63.50,-999.00,4.6000,4.6000,-999.0000,3.9,-999,4.4,100.0,,-999.0000,30.7350,-999.0000,12.6
2022-05-18 13:45:00,2022-05-18 06:45:00,-999.0000,63.53,-999.00,4.6000,4.6000,-999.0000,3.7,-999,4.4,100.0,,-999.0000,30.7350,-999.0000,12.6
2022-05-18 14:00:00,2022-05-18 07:00:00,-999.0000,63.54,-999.00,4.6000,4.6000,-999.0000,3.7,-999,4.4,100.0,,-999.0000,30.7350,-999.0000,12.6
2022-05-18 14:15:00,2022-05-18 07:15:00,-999.0000,63.54,-999.00,4.7000,4.7000,-999.0000,3.7,-999,4.5,100.0,,-999.0000,30.7320,-999.0000,12.6
2022-05-18 14:30:00,2022-05-18 07:30:00,-999.0000,63.55,-999.00,4.8000,4.8000,-999.0000,3.9,-999,4.6,100.0,,-999.0000,30.7350,-999.0000,12.6
2022-05-18 14:45:00,2022-05-18 07:45:00,-999.0000,63.56,-999.00,4.9000,4.9000,-999.0000,3.9,-999,4.7,100.0,,-999.0000,30.7390,-999.0000,12.6
2022-05-18 15:00:00,2022-05-18 08:00:00,-999.0000,63.59,-999.00,5.0000,5.0000,-999.0000,3.9,-999,4.7,100.0,,-999.0000,30.7450,-999.0000,12.7
2022-05-18 15:15:00,2022-05-18 08:15:00,-999.0000,63.62,-999.00,5.1000,5.1000,-999.0000,3.9,-999,4.8,100.0,,-999.0000,30.7390,-999.0000,12.6
2022-05-18 15:30:00,2022-05-18 08:30:00,-999.0000,63.65,-999.00,5.1000,5.1000,-999.0000,4.1,-999,4.9,100.0,,-999.0000,30.7420,-999.0000,12.7
2022-05-18 15:45:00,2022-05-18 08:45:00,-999.0000,63.67,-999.00,5.3000,5.3000,-999.0000,4.1,-999,5.0,100.0,,-999.0000,30.7450,-999.0000,12.7
2022-05-18 16:00:00,2022-05-18 09:00:00,-999.0000,63.68,-999.00,5.4000,5.4000,-999.0000,4.3,-999,5.2,100.0,,-999.0000,30.7450,-999.0000,12.7
2022-05-18 16:15:00,2022-05-18 09:15:00,-999.0000,63.68,-999.00,5.6000,5.6000,-999.0000,4.4,-999,5.4,100.0,,-999.0000,30.7520,-999.0000,12.7
2022-05-18 16:30:00,2022-05-18 09:30:00,-999.0000,63.68,-999.00,5.7000,5.7000,-999.0000,4.6,-999,5.6,100.0,,-999.0000,30.7520,-999.0000,12.8
2022-05-18 16:45:00,2022-05-18 09:45:00,-999.0000,63.69,-999.00,5.9000,5.9000,-999.0000,4.8,-999,5.7,100.0,,-999.0000,30.7490,-999.0000,12.8
2022-05-18 17:00:00,2022-05-18 10:00:00,-999.0000,63.69,-999.00,6.2000,6.2000,-999.0000,5.1,-999,6.0,100.0,,-999.0000,30.7420,-999.0000,12.9
2022-05-18 17:15:00,2022-05-18 10:15:00,-999.0000,63.69,-999.00,6.4000,6.4000,-999.0000,5.5,-999,6.3,100.0,,-999.0000,30.7520,-999.0000,13.0
2022-05-18 17:30:00,2022-05-18 10:30:00,-999.0000,63.70,-999.00,6.6000,6.6000,-999.0000,5.8,-999,6.6,100.0,,-999.0000,30.7490,-999.0000,13.1
2022-05-18 17:45:00,2022-05-18 10:45:00,-999.0000,63.71,-999.00,6.8000,6.8000,-999.0000,6.0,-999,6.7,100.0,,-999.0000,30.7550,-999.0000,13.2
2022-05-18 18:00:00,2022-05-18 11:00:00,-999.0000,63.71,-999.00,7.2000,7.0532,-999.0000,6.4,-999,7.5,99.0,,-999.0000,30.7520,-999.0000,13.4
2022-05-18 18:15:00,2022-05-18 11:15:00,-999.0000,63.72,-999.00,7.6000,7.1541,-999.0000,7.1,-999,7.9,97.0,,-999.0000,30.7520,-999.0000,14.4
2022-05-18 18:30:00,2022-05-18 11:30:00,-999.0000,63.72,-999.00,7.7000,6.7951,-999.0000,7.8,-999,7.6,94.0,,-999.0000,30.7550,-999.0000,14.2
2022-05-18 18:45:00,2022-05-18 11:45:00,-999.0000,63.73,-999.00,7.7000,6.9494,-999.0000,8.1,-999,7.5,95.0,,-999.0000,30.7620,-999.0000,14.4
2022-05-18 19:00:00,2022-05-18 12:00:00,-999.0000,63.74,-999.00,7.4000,6.3419,-999.0000,8.3,-999,7.4,93.0,,-999.0000,30.7650,-999.0000,14.5
2022-05-18 19:15:00,2022-05-18 12:15:00,-999.0000,63.74,-999.00,7.4000,6.6512,-999.0000,8.5,-999,7.1,95.0,,-999.0000,30.7690,-999.0000,14.4
2022-05-18 19:30:00,2022-05-18 12:30:00,-999.0000,63.76,-999.00,7.4000,6.3419,-999.0000,8.5,-999,7.1,93.0,,-999.0000,30.7860,-999.0000,14.6
2022-05-18 19:45:00,2022-05-18 12:45:00,-999.0000,63.77,-999.00,7.2000,5.8289,-999.0000,8.3,-999,6.7,91.0,,-999.0000,30.7890,-999.0000,14.2
2022-05-18 20:00:00,2022-05-18 13:00:00,-999.0000,63.77,-999.00,7.3000,5.6066,-999.0000,8.1,-999,7.3,89.0,,-999.0000,30.7960,-999.0000,14.7
2022-05-18 20:15:00,2022-05-18 13:15:00,-999.0000,63.77,-999.00,7.2000,5.1806,-999.0000,8.1,-999,6.3,87.0,,-999.0000,30.7990,-999.0000,14.4
2022-05-18 20:30:00,2022-05-18 13:30:00,-999.0000,63.78,-999.00,7.0000,5.1481,-999.0000,8.1,-999,6.5,88.0,,-999.0000,30.8060,-999.0000,14.2
2022-05-18 20:45:00,2022-05-18 13:45:00,-999.0000,63.78,-999.00,7.3000,5.1127,-999.0000,7.9,-999,6.6,86.0,,-999.0000,30.8090,-999.0000,14.1
2022-05-18 21:00:00,2022-05-18 14:00:00,-999.0000,63.78,-999.00,7.1000,4.2344,-999.0000,8.1,-999,6.3,82.0,,-999.0000,30.8120,-999.0000,14.7
2022-05-18 21:15:00,2022-05-18 14:15:00,-999.0000,63.78,-999.00,7.1000,5.7300,-999.0000,8.1,-999,6.4,91.0,,-999.0000,30.8090,-999.0000,14.2
2022-05-18 21:30:00,2022-05-18 14:30:00,-999.0000,63.78,-999.00,6.6000,4.4249,-999.0000,8.3,-999,6.0,86.0,,-999.0000,30.8190,-999.0000,14.4
2022-05-18 21:45:00,2022-05-18 14:45:00,-999.0000,63.79,-999.00,6.3000,5.0957,-999.0000,7.9,-999,6.1,92.0,,-999.0000,30.8220,-999.0000,14.0
2022-05-18 22:00:00,2022-05-18 15:00:00,-999.0000,63.79,-999.00,6.2000,4.5214,-999.0000,7.6,-999,5.9,89.0,,-999.0000,30.8220,-999.0000,14.2
2022-05-18 22:15:00,2022-05-18 15:15:00,-999.0000,63.80,-999.00,6.0000,4.7986,-999.0000,7.4,-999,5.6,92.0,,-999.0000,30.8220,-999.0000,14.3
2022-05-18 22:30:00,2022-05-18 15:30:00,-999.0000,63.80,-999.00,5.7000,4.6562,-999.0000,7.2,-999,5.4,93.0,,-999.0000,30.8290,-999.0000,14.3
2022-05-18 22:45:00,2022-05-18 15:45:00,-999.0000,63.81,-999.00,5.5000,4.7625,-999.0000,6.9,-999,5.3,95.0,,-999.0000,30.8260,-999.0000,14.4
2022-05-18 23:00:00,2022-05-18 16:00:00,-999.0000,63.82,-999.00,5.5000,4.9127,-999.0000,6.5,-999,5.3,96.0,,-999.0000,30.8220,-999.0000,14.1
2022-05-18 23:15:00,2022-05-18 16:15:00,-999.0000,63.83,-999.00,5.3000,4.5637,-999.0000,6.4,-999,5.1,95.0,,-999.0000,30.8160,-999.0000,14.7
2022-05-18 23:30:00,2022-05-18 16:30:00,-999.0000,63.84,-999.00,5.3000,4.5637,-999.0000,6.2,-999,5.1,95.0,,-999.0000,30.8160,-999.0000,14.5
2022-05-18 23:45:00,2022-05-18 16:45:00,-999.0000,63.85,-999.00,5.2000,4.4643,-999.0000,5.8,-999,4.9,95.0,,-999.0000,30.8120,-999.0000,14.3
2022-05-19 00:00:00,2022-05-18 17:00:00,-999.0000,63.87,-999.00,5.1000,4.6629,-999.0000,5.5,-999,4.8,97.0,,-999.0000,30.8220,-999.0000,14.7
2022-05-19 00:15:00,2022-05-18 17:15:00,-999.0000,63.87,-999.00,5.4000,4.5116,-999.0000,5.5,-999,5.3,94.0,,-999.0000,30.8120,-999.0000,14.1
2022-05-19 00:30:00,2022-05-18 17:30:00,-999.0000,63.87,-999.00,5.7000,4.9613,-999.0000,5.8,-999,5.4,95.0,,-999.0000,30.8120,-999.0000,14.2
2022-05-19 00:45:00,2022-05-18 17:45:00,-999.0000,63.87,-999.00,5.7000,4.6562,-999.0000,5.8,-999,5.1,93.0,,-999.0000,30.8020,-999.0000,14.1
2022-05-19 01:00:00,2022-05-18 18:00:00,-999.0000,63.88,-999.00,5.2000,4.1604,-999.0000,5.8,-999,4.9,93.0,,-999.0000,30.8090,-999.0000,14.3
2022-05-19 01:15:00,2022-05-18 18:15:00,-999.0000,63.89,-999.00,4.9000,3.8629,-999.0000,5.5,-999,4.4,93.0,,-999.0000,30.8190,-999.0000,13.8
2022-05-19 01:30:00,2022-05-18 18:30:00,-999.0000,63.91,-999.00,4.6000,3.5654,-999.0000,5.3,-999,4.1,93.0,,-999.0000,30.8160,-999.0000,14.1
2022-05-19 01:45:00,2022-05-18 18:45:00,-999.0000,63.91,-999.00,4.4000,3.5187,-999.0000,4.8,-999,4.0,94.0,,-999.0000,30.8120,-999.0000,14.2
2022-05-19 02:00:00,2022-05-18 19:00:00,-999.0000,63.92,-999.00,4.5000,3.7684,-999.0000,4.6,-999,4.0,95.0,,-999.0000,30.8160,-999.0000,14.8
2022-05-19 02:15:00,2022-05-18 19:15:00,-999.0000,63.92,-999.00,4.5000,3.9174,-999.0000,4.4,-999,4.1,96.0,,-999.0000,30.8090,-999.0000,13.5
2022-05-19 02:30:00,2022-05-18 19:30:00,-999.0000,63.93,-999.00,4.3000,3.5696,-999.0000,4.3,-999,3.9,95.0,,-999.0000,30.8220,-999.0000,13.2
2022-05-19 02:45:00,2022-05-18 19:45:00,-999.0000,63.93,-999.00,4.2000,3.4702,-999.0000,3.9,-999,3.8,95.0,,-999.0000,30.8090,-999.0000,13.1
2022-05-19 03:00:00,2022-05-18 20:00:00,-999.0000,63.93,-999.00,4.1000,3.6665,-999.0000,3.7,-999,3.8,97.0,,-999.0000,30.8160,-999.0000,13.1
2022-05-19 03:15:00,2022-05-18 20:15:00,-999.0000,63.93,-999.00,4.1000,3.3708,-999.0000,3.7,-999,3.6,95.0,,-999.0000,30.8060,-999.0000,13.0
2022-05-19 03:30:00,2022-05-18 20:30:00,-999.0000,63.94,-999.00,3.9000,3.4672,-999.0000,3.6,-999,3.5,97.0,,-999.0000,30.8060,-999.0000,13.0
2022-05-19 03:45:00,2022-05-18 20:45:00,-999.0000,63.95,-999.00,3.6000,2.5737,-999.0000,3.4,-999,3.3,93.0,,-999.0000,30.8120,-999.0000,12.9
2022-05-19 04:00:00,2022-05-18 21:00:00,-999.0000,63.95,-999.00,3.4000,2.2235,-999.0000,3.2,-999,2.9,92.0,,-999.0000,30.8190,-999.0000,12.9
2022-05-19 04:15:00,2022-05-18 21:15:00,-999.0000,63.95,-999.00,3.5000,1.8575,-999.0000,3.0,-999,2.6,89.0,,-999.0000,30.8120,-999.0000,12.9
2022-05-19 04:30:00,2022-05-18 21:30:00,-999.0000,63.95,-999.00,3.2000,2.3273,-999.0000,2.8,-999,2.7,94.0,,-999.0000,30.8120,-999.0000,12.9
2022-05-19 04:45:00,2022-05-18 21:45:00,-999.0000,63.95,-999.00,3.1000,2.6700,-999.0000,2.7,-999,2.7,97.0,,-999.0000,30.8120,-999.0000,12.9
2022-05-19 05:00:00,2022-05-18 22:00:00,-999.0000,63.95,-999.00,3.1000,2.6700,-999.0000,2.3,-999,2.6,97.0,,-999.0000,30.8090,-999.0000,12.8
2022-05-19 05:15:00,2022-05-18 22:15:00,-999.0000,63.95,-999.00,3.0000,2.5703,-999.0000,2.3,-999,2.6,97.0,,-999.0000,30.8060,-999.0000,12.8
2022-05-19 05:30:00,2022-05-18 22:30:00,-999.0000,63.95,-999.00,2.9000,2.4707,-999.0000,2.3,-999,2.6,97.0,,-999.0000,30.7960,-999.0000,12.8
2022-05-19 05:45:00,2022-05-18 22:45:00,-999.0000,63.95,-999.00,2.8000,2.3710,-999.0000,2.1,-999,2.5,97.0,,-999.0000,30.7990,-999.0000,12.8
2022-05-19 06:00:00,2022-05-18 23:00:00,-999.0000,63.97,-999.00,2.6000,2.1717,-999.0000,2.0,-999,2.3,97.0,,-999.0000,30.8020,-999.0000,12.8
2022-05-19 06:15:00,2022-05-18 23:15:00,-999.0000,63.97,-999.00,2.5000,2.0720,-999.0000,2.0,-999,2.2,97.0,,-999.0000,30.7920,-999.0000,12.8
2022-05-19 06:30:00,2022-05-18 23:30:00,-999.0000,63.98,-999.00,2.4000,1.9724,-999.0000,2.0,-999,2.0,97.0,,-999.0000,30.7960,-999.0000,12.8
2022-05-19 06:45:00,2022-05-18 23:45:00,-999.0000,63.99,-999.00,2.1000,1.3825,-999.0000,1.8,-999,1.7,95.0,,-999.0000,30.8190,-999.0000,12.8
2022-05-19 07:00:00,2022-05-19 00:00:00,-999.0000,64.00,-999.00,1.9000,0.8878,-999.0000,1.4,-999,1.4,93.0,,-999.0000,30.8160,-999.0000,12.7
2022-05-19 07:15:00,2022-05-19 00:15:00,-999.0000,64.02,-999.00,1.4000,0.9759,-999.0000,1.3,-999,1.0,97.0,,-999.0000,30.8220,-999.0000,12.7
2022-05-19 07:30:00,2022-05-19 00:30:00,-999.0000,64.02,-999.00,1.4000,1.4000,-999.0000,1.1,-999,1.1,100.0,,-999.0000,30.8160,-999.0000,12.7
2022-05-19 07:45:00,2022-05-19 00:45:00,-999.0000,64.02,-999.00,1.4000,1.4000,-999.0000,0.9,-999,1.2,100.0,,-999.0000,30.8160,-999.0000,12.7
2022-05-19 08:00:00,2022-05-19 01:00:00,-999.0000,64.02,-999.00,1.4000,1.2599,-999.0000,0.9,-999,1.1,99.0,,-999.0000,30.8090,-999.0000,12.7
2022-05-19 08:15:00,2022-05-19 01:15:00,-999.0000,64.02,-999.00,1.2000,0.7766,-999.0000,0.9,-999,0.9,97.0,,-999.0000,30.8020,-999.0000,12.7
2022-05-19 08:30:00,2022-05-19 01:30:00,-999.0000,64.02,-999.00,1.1000,0.9602,-999.0000,0.7,-999,0.7,99.0,,-999.0000,30.7990,-999.0000,12.7
2022-05-19 08:45:00,2022-05-19 01:45:00,-999.0000,64.02,-999.00,0.8000,0.6606,-999.0000,0.4,-999,0.5,99.0,,-999.0000,30.7990,-999.0000,12.7
2022-05-19 09:00:00,2022-05-19 02:00:00,-999.0000,64.02,-999.00,0.6000,0.6000,-999.0000,0.2,-999,0.3,100.0,,-999.0000,30.8020,-999.0000,12.7
2022-05-19 09:15:00,2022-05-19 02:15:00,-999.0000,64.02,-999.00,0.6000,0.6000,-999.0000,0.2,-999,0.2,100.0,,-999.0000,30.7920,-999.0000,12.7
2022-05-19 09:30:00,2022-05-19 02:30:00,-999.0000,64.02,-999.00,0.6000,0.6000,-999.0000,0.0,-999,0.2,100.0,,-999.0000,30.7920,-999.0000,12.7
2022-05-19 09:45:00,2022-05-19 02:45:00,-999.0000,64.02,-999.00,0.7000,0.7000,-999.0000,-0.1,-999,0.2,100.0,,-999.0000,30.7890,-999.0000,12.7
2022-05-19 10:00:00,2022-05-19 03:00:00,-999.0000,64.02,-999.00,0.6000,0.6000,-999.0000,-0.3,-999,0.1,100.0,,-999.0000,30.7960,-999.0000,12.7
2022-05-19 10:15:00,2022-05-19 03:15:00,-999.0000,64.02,-999.00,0.6000,0.6000,-999.0000,-0.1,-999,0.1,100.0,,-999.0000,30.8020,-999.0000,12.6
2022-05-19 10:30:00,2022-05-19 03:30:00,-999.0000,64.02,-999.00,0.4000,0.4000,-999.0000,-0.3,-999,0.1,100.0,,-999.0000,30.7990,-999.0000,12.6
2022-05-19 10:45:00,2022-05-19 03:45:00,-999.0000,64.02,-999.00,0.4000,0.4000,-999.0000,-0.5,-999,0.1,100.0,,-999.0000,30.7920,-999.0000,12.6
2022-05-19 11:00:00,2022-05-19 04:00:00,-999.0000,64.02,-999.00,0.6000,0.6000,-999.0000,-0.5,-999,0.2,100.0,,-999.0000,30.7960,-999.0000,12.7
2022-05-19 11:15:00,2022-05-19 04:15:00,-999.0000,64.02,-999.00,0.6000,0.6000,-999.0000,-0.5,-999,0.2,100.0,,-999.0000,30.7990,-999.0000,12.6
2022-05-19 11:30:00,2022-05-19 04:30:00,-999.0000,64.02,-999.00,0.7000,0.7000,-999.0000,-0.5,-999,0.3,100.0,,-999.0000,30.7990,-999.0000,12.6
2022-05-19 11:45:00,2022-05-19 04:45:00,-999.0000,64.02,-999.00,0.6000,0.6000,-999.0000,-0.5,-999,0.3,100.0,,-999.0000,30.7990,-999.0000,12.6
2022-05-19 12:00:00,2022-05-19 05:00:00,-999.0000,64.02,-999.00,0.6000,0.6000,-999.0000,-0.5,-999,0.3,100.0,,-999.0000,30.8020,-999.0000,12.6
2022-05-19 12:15:00,2022-05-19 05:15:00,-999.0000,64.02,-999.00,0.7000,0.7000,-999.0000,-0.3,-999,0.3,100.0,,-999.0000,30.7960,-999.0000,12.6
2022-05-19 12:30:00,2022-05-19 05:30:00,-999.0000,64.02,-999.00,0.7000,0.7000,-999.0000,-0.3,-999,0.3,100.0,,-999.0000,30.7990,-999.0000,12.6
2022-05-19 12:45:00,2022-05-19 05:45:00,-999.0000,64.02,-999.00,0.5000,0.5000,-999.0000,-0.3,-999,0.2,100.0,,-999.0000,30.7990,-999.0000,12.6
2022-05-19 13:00:00,2022-05-19 06:00:00,-999.0000,64.02,-999.00,0.6000,0.6000,-999.0000,-0.5,-999,0.3,100.0,,-999.0000,30.8020,-999.0000,12.6
2022-05-19 13:15:00,2022-05-19 06:15:00,-999.0000,64.02,-999.00,0.6000,0.6000,-999.0000,-0.3,-999,0.3,100.0,,-999.0000,30.7960,-999.0000,12.6
2022-05-19 13:30:00,2022-05-19 06:30:00,-999.0000,64.02,-999.00,0.6000,0.6000,-999.0000,-0.3,-999,0.3,100.0,,-999.0000,30.8020,-999.0000,12.6
2022-05-19 13:45:00,2022-05-19 06:45:00,-999.0000,64.02,-999.00,0.6000,0.6000,-999.0000,-0.3,-999,0.4,100.0,,-999.0000,30.8020,-999.0000,12.6
2022-05-19 14:00:00,2022-05-19 07:00:00,-999.0000,64.02,-999.00,0.6000,0.6000,-999.0000,-0.3,-999,0.4,100.0,,-999.0000,30.8020,-999.0000,12.6
2022-05-19 14:15:00,2022-05-19 07:15:00,-999.0000,64.02,-999.00,0.7000,0.7000,-999.0000,-0.3,-999,0.4,100.0,,-999.0000,30.8020,-999.0000,12.6
2022-05-19 14:30:00,2022-05-19 07:30:00,-999.0000,64.02,-999.00,0.7000,0.7000,-999.0000,-0.3,-999,0.5,100.0,,-999.0000,30.8020,-999.0000,12.7
2022-05-19 14:45:00,2022-05-19 07:45:00,-999.0000,64.02,-999.00,0.6000,0.6000,-999.0000,-0.3,-999,0.2,100.0,,-999.0000,30.8020,-999.0000,12.7
2022-05-19 15:00:00,2022-05-19 08:00:00,-999.0000,64.02,-999.00,0.6000,0.6000,-999.0000,-0.3,-999,0.2,100.0,,-999.0000,30.8020,-999.0000,12.7
2022-05-19 15:15:00,2022-05-19 08:15:00,-999.0000,64.02,-999.00,0.7000,0.7000,-999.0000,-0.3,-999,0.4,100.0,,-999.0000,30.8060,-999.0000,12.7
2022-05-19 15:30:00,2022-05-19 08:30:00,-999.0000,64.02,-999.00,0.5000,0.5000,-999.0000,-0.1,-999,0.3,100.0,,-999.0000,30.7990,-999.0000,12.8
2022-05-19 15:45:00,2022-05-19 08:45:00,-999.0000,64.02,-999.00,0.6000,0.6000,-999.0000,-0.3,-999,0.4,100.0,,-999.0000,30.8090,-999.0000,12.8
2022-05-19 16:00:00,2022-05-19 09:00:00,-999.0000,64.02,-999.00,0.6000,0.6000,-999.0000,-0.3,-999,0.3,100.0,,-999.0000,30.8120,-999.0000,12.8
2022-05-19 16:15:00,2022-05-19 09:15:00,-999.0000,64.02,-999.00,0.7000,0.7000,-999.0000,-0.1,-999,0.4,100.0,,-999.0000,30.8160,-999.0000,12.9
2022-05-19 16:30:00,2022-05-19 09:30:00,-999.0000,64.02,-999.00,0.9000,0.9000,-999.0000,-0.1,-999,0.6,100.0,,-999.0000,30.8190,-999.0000,12.9
2022-05-19 16:45:00,2022-05-19 09:45:00,-999.0000,64.02,-999.00,1.1000,1.1000,-999.0000,0.0,-999,0.9,100.0,,-999.0000,30.8220,-999.0000,13.1
2022-05-19 17:00:00,2022-05-19 10:00:00,-999.0000,64.02,-999.00,1.3000,1.3000,-999.0000,0.2,-999,1.3,100.0,,-999.0000,30.8160,-999.0000,13.3
2022-05-19 17:15:00,2022-05-19 10:15:00,-999.0000,64.02,-999.00,1.7000,1.7000,-999.0000,0.9,-999,1.7,100.0,,-999.0000,30.8190,-999.0000,13.4
2022-05-19 17:30:00,2022-05-19 10:30:00,-999.0000,64.07,-999.00,1.0000,1.0000,-999.0000,1.3,-999,1.0,100.0,,-999.0000,30.8220,-999.0000,13.4
2022-05-19 17:45:00,2022-05-19 10:45:00,-999.0000,64.07,-999.00,1.1000,1.1000,-999.0000,1.3,-999,1.1,100.0,,-999.0000,30.8220,-999.0000,14.8
2022-05-19 18:00:00,2022-05-19 11:00:00,-999.0000,64.07,-999.00,1.3000,1.3000,-999.0000,1.4,-999,1.2,100.0,,-999.0000,30.8220,-999.0000,14.6
2022-05-19 18:15:00,2022-05-19 11:15:00,-999.0000,64.13,-999.00,0.9000,0.9000,-999.0000,1.6,-999,1.0,100.0,,-999.0000,30.8220,-999.0000,13.6
2022-05-19 18:30:00,2022-05-19 11:30:00,-999.0000,64.13,-999.00,0.6000,0.6000,-999.0000,1.4,-999,0.4,100.0,,-999.0000,30.8290,-999.0000,14.2
2022-05-19 18:45:00,2022-05-19 11:45:00,-999.0000,64.13,-999.00,0.9000,0.9000,-999.0000,0.9,-999,0.8,100.0,,-999.0000,30.8320,-999.0000,14.7
2022-05-19 19:00:00,2022-05-19 12:00:00,-999.0000,64.18,-999.00,1.2000,1.2000,-999.0000,0.9,-999,1.3,100.0,,-999.0000,30.8360,-999.0000,14.7
2022-05-19 19:15:00,2022-05-19 12:15:00,-999.0000,64.22,-999.00,2.0000,2.0000,-999.0000,1.3,-999,2.0,100.0,,-999.0000,30.8290,-999.0000,14.1
2022-05-19 19:30:00,2022-05-19 12:30:00,-999.0000,64.30,-999.00,2.8000,2.8000,-999.0000,2.5,-999,3.3,100.0,,-999.0000,30.8390,-999.0000,14.3
2022-05-19 19:45:00,2022-05-19 12:45:00,-999.0000,64.35,-999.00,2.5000,2.5000,-999.0000,3.4,-999,3.3,100.0,,-999.0000,30.8360,-999.0000,14.3
2022-05-19 20:00:00,2022-05-19 13:00:00,-999.0000,64.40,-999.00,2.9000,2.9000,-999.0000,3.9,-999,3.3,100.0,,-999.0000,30.8360,-999.0000,14.5
2022-05-19 20:15:00,2022-05-19 13:15:00,-999.0000,64.45,-999.00,2.2000,2.2000,-999.0000,4.3,-999,2.6,100.0,,-999.0000,30.8360,-999.0000,14.3
2022-05-19 20:30:00,2022-05-19 13:30:00,-999.0000,64.52,-999.00,2.5000,2.5000,-999.0000,4.1,-999,4.0,100.0,,-999.0000,30.8420,-999.0000,14.2
2022-05-19 20:45:00,2022-05-19 13:45:00,-999.0000,64.57,-999.00,3.5000,3.5000,-999.0000,4.1,-999,4.0,100.0,,-999.0000,30.8290,-999.0000,14.3
2022-05-19 21:00:00,2022-05-19 14:00:00,-999.0000,64.58,-999.00,3.9000,3.0223,-999.0000,4.6,-999,4.6,94.0,,-999.0000,30.8290,-999.0000,14.3
2022-05-19 21:15:00,2022-05-19 14:15:00,-999.0000,64.59,-999.00,4.5000,3.9174,-999.0000,5.1,-999,4.7,96.0,,-999.0000,30.8290,-999.0000,14.0
2022-05-19 21:30:00,2022-05-19 14:30:00,-999.0000,64.59,-999.00,4.1000,3.5193,-999.0000,5.5,-999,4.7,96.0,,-999.0000,30.8320,-999.0000,14.5
2022-05-19 21:45:00,2022-05-19 14:45:00,-999.0000,64.59,-999.00,4.5000,3.7684,-999.0000,5.7,-999,4.6,95.0,,-999.0000,30.8360,-999.0000,14.5
2022-05-19 22:00:00,2022-05-19 15:00:00,-999.0000,64.59,-999.00,4.5000,3.1582,-999.0000,6.0,-999,4.6,91.0,,-999.0000,30.8390,-999.0000,14.3
2022-05-19 22:15:00,2022-05-19 15:15:00,-999.0000,64.59,-999.00,4.8000,4.2160,-999.0000,6.2,-999,4.9,96.0,,-999.0000,30.8320,-999.0000,14.1
2022-05-19 22:30:00,2022-05-19 15:30:00,-999.0000,64.59,-999.00,4.5000,3.0020,-999.0000,6.2,-999,4.4,90.0,,-999.0000,30.8490,-999.0000,14.3
2022-05-19 22:45:00,2022-05-19 15:45:00,-999.0000,64.60,-999.00,4.2000,2.8615,-999.0000,6.0,-999,4.5,91.0,,-999.0000,30.8460,-999.0000,14.5
2022-05-19 23:00:00,2022-05-19 16:00:00,-999.0000,64.60,-999.00,4.6000,3.8678,-999.0000,6.0,-999,4.3,95.0,,-999.0000,30.8360,-999.0000,14.5
2022-05-19 23:15:00,2022-05-19 16:15:00,-999.0000,64.60,-999.00,5.4000,3.2456,-999.0000,6.0,-999,4.6,86.0,,-999.0000,30.8390,-999.0000,14.2
2022-05-19 23:30:00,2022-05-19 16:30:00,-999.0000,64.60,-999.00,6.0000,3.1594,-999.0000,6.2,-999,5.1,82.0,,-999.0000,30.8460,-999.0000,14.1
2022-05-19 23:45:00,2022-05-19 16:45:00,-999.0000,64.60,-999.00,4.8000,2.8190,-999.0000,6.4,-999,4.5,87.0,,-999.0000,30.8560,-999.0000,14.8
2022-05-20 00:00:00,2022-05-19 17:00:00,-999.0000,64.60,-999.00,4.2000,3.6188,-999.0000,6.0,-999,4.1,96.0,,-999.0000,30.8460,-999.0000,14.4
2022-05-20 00:15:00,2022-05-19 17:15:00,-999.0000,64.60,-999.00,5.1000,3.4361,-999.0000,5.7,-999,4.4,89.0,,-999.0000,30.8420,-999.0000,14.6
2022-05-20 00:30:00,2022-05-19 17:30:00,-999.0000,64.61,-999.00,5.5000,1.9679,-999.0000,5.7,-999,4.4,78.0,,-999.0000,30.8420,-999.0000,14.1
2022-05-20 00:45:00,2022-05-19 17:45:00,-999.0000,64.61,-999.00,5.9000,3.5708,-999.0000,5.5,-999,4.9,85.0,,-999.0000,30.8420,-999.0000,14.3
2022-05-20 01:00:00,2022-05-19 18:00:00,-999.0000,64.61,-999.00,5.7000,3.2069,-999.0000,5.5,-999,4.7,84.0,,-999.0000,30.8360,-999.0000,14.7
2022-05-20 01:15:00,2022-05-19 18:15:00,-999.0000,64.61,-999.00,5.6000,3.7687,-999.0000,5.7,-999,4.7,88.0,,-999.0000,30.8420,-999.0000,14.2
2022-05-20 01:30:00,2022-05-19 18:30:00,-999.0000,64.61,-999.00,5.2000,3.0491,-999.0000,5.5,-999,4.6,86.0,,-999.0000,30.8420,-999.0000,14.1
2022-05-20 01:45:00,2022-05-19 18:45:00,-999.0000,64.61,-999.00,5.0000,2.5208,-999.0000,5.5,-999,4.4,84.0,,-999.0000,30.8460,-999.0000,14.9
2022-05-20 02:00:00,2022-05-19 19:00:00,-999.0000,64.61,-999.00,5.1000,3.2760,-999.0000,5.3,-999,4.6,88.0,,-999.0000,30.8420,-999.0000,14.9
2022-05-20 02:15:00,2022-05-19 19:15:00,-999.0000,64.61,-999.00,5.6000,2.9396,-999.0000,5.1,-999,4.7,83.0,,-999.0000,30.8420,-999.0000,13.6
2022-05-20 02:30:00,2022-05-19 19:30:00,-999.0000,64.61,-999.00,5.1000,3.5947,-999.0000,5.1,-999,4.5,90.0,,-999.0000,30.8520,-999.0000,13.9
2022-05-20 02:45:00,2022-05-19 19:45:00,-999.0000,64.61,-999.00,4.2000,3.1687,-999.0000,4.8,-999,3.9,93.0,,-999.0000,30.8520,-999.0000,13.7
2022-05-20 03:00:00,2022-05-19 20:00:00,-999.0000,64.61,-999.00,3.7000,3.1212,-999.0000,4.6,-999,3.5,96.0,,-999.0000,30.8590,-999.0000,13.2
2022-05-20 03:15:00,2022-05-19 20:15:00,-999.0000,64.61,-999.00,3.6000,3.1682,-999.0000,4.1,-999,3.3,97.0,,-999.0000,30.8660,-999.0000,13.0
2022-05-20 03:30:00,2022-05-19 20:30:00,-999.0000,64.61,-999.00,3.3000,2.8693,-999.0000,3.9,-999,2.9,97.0,,-999.0000,30.8690,-999.0000,13.0
2022-05-20 03:45:00,2022-05-19 20:45:00,-999.0000,64.61,-999.00,3.1000,2.6700,-999.0000,3.6,-999,2.6,97.0,,-999.0000,30.8730,-999.0000,13.0
2022-05-20 04:00:00,2022-05-19 21:00:00,-999.0000,64.61,-999.00,2.7000,2.4155,-999.0000,3.0,-999,2.3,98.0,,-999.0000,30.8790,-999.0000,13.0
2022-05-20 04:15:00,2022-05-19 21:15:00,-999.0000,64.61,-999.00,2.4000,2.1162,-999.0000,2.8,-999,2.1,98.0,,-999.0000,30.8790,-999.0000,12.9
2022-05-20 04:30:00,2022-05-19 21:30:00,-999.0000,64.61,-999.00,2.2000,2.0590,-999.0000,2.5,-999,1.7,99.0,,-999.0000,30.8860,-999.0000,12.9
2022-05-20 04:45:00,2022-05-19 21:45:00,-999.0000,64.61,-999.00,2.0000,1.8592,-999.0000,2.0,-999,1.6,99.0,,-999.0000,30.8930,-999.0000,12.9
2022-05-20 05:00:00,2022-05-19 22:00:00,-999.0000,64.61,-999.00,1.8000,1.6594,-999.0000,1.8,-999,1.4,99.0,,-999.0000,30.8960,-999.0000,12.9
2022-05-20 05:15:00,2022-05-19 22:15:00,-999.0000,64.61,-999.00,1.7000,1.7000,-999.0000,1.3,-999,1.3,100.0,,-999.0000,30.8890,-999.0000,12.9
2022-05-20 05:30:00,2022-05-19 22:30:00,-999.0000,64.61,-999.00,1.5000,1.3598,-999.0000,1.3,-999,1.1,99.0,,-999.0000,30.8960,-999.0000,12.8
2022-05-20 05:45:00,2022-05-19 22:45:00,-999.0000,64.61,-999.00,1.5000,1.5000,-999.0000,0.7,-999,1.0,100.0,,-999.0000,30.8930,-999.0000,12.8
2022-05-20 06:00:00,2022-05-19 23:00:00,-999.0000,64.61,-999.00,1.4000,1.4000,-999.0000,0.7,-999,0.9,100.0,,-999.0000,30.8930,-999.0000,12.8
2022-05-20 06:15:00,2022-05-19 23:15:00,-999.0000,64.61,-999.00,1.2000,1.2000,-999.0000,0.4,-999,0.8,100.0,,-999.0000,30.8860,-999.0000,12.8
2022-05-20 06:30:00,2022-05-19 23:30:00,-999.0000,64.61,-999.00,1.2000,1.2000,-999.0000,0.4,-999,0.8,100.0,,-999.0000,30.8960,-999.0000,12.8
2022-05-20 06:45:00,2022-05-19 23:45:00,-999.0000,64.61,-999.00,1.4000,1.4000,-999.0000,0.2,-999,1.1,100.0,,-999.0000,30.8960,-999.0000,12.8
2022-05-20 07:00:00,2022-05-20 00:00:00,-999.0000,64.61,-999.00,1.5000,1.5000,-999.0000,0.2,-999,1.2,100.0,,-999.0000,30.8930,-999.0000,12.8
2022-05-20 07:15:00,2022-05-20 00:15:00,-999.0000,64.61,-999.00,1.5000,1.5000,-999.0000,0.4,-999,1.2,100.0,,-999.0000,30.8930,-999.0000,12.7
2022-05-20 07:30:00,2022-05-20 00:30:00,-999.0000,64.61,-999.00,1.8000,1.8000,-999.0000,0.4,-999,1.4,100.0,,-999.0000,30.8960,-999.0000,12.8
2022-05-20 07:45:00,2022-05-20 00:45:00,-999.0000,64.61,-999.00,1.9000,1.9000,-999.0000,0.4,-999,1.5,100.0,,-999.0000,30.8990,-999.0000,12.7
2022-05-20 08:00:00,2022-05-20 01:00:00,-999.0000,64.61,-999.00,2.0000,2.0000,-999.0000,0.6,-999,1.6,100.0,,-999.0000,30.8990,-999.0000,12.7
2022-05-20 08:15:00,2022-05-20 01:15:00,-999.0000,64.61,-999.00,2.1000,2.1000,-999.0000,0.7,-999,1.7,100.0,,-999.0000,30.9030,-999.0000,12.7
2022-05-20 08:30:00,2022-05-20 01:30:00,-999.0000,64.61,-999.00,2.2000,2.2000,-999.0000,0.7,-999,1.8,100.0,,-999.0000,30.8990,-999.0000,12.7
2022-05-20 08:45:00,2022-05-20 01:45:00,-999.0000,64.61,-999.00,2.2000,2.2000,-999.0000,0.9,-999,1.9,100.0,,-999.0000,30.8960,-999.0000,12.7
2022-05-20 09:00:00,2022-05-20 02:00:00,-999.0000,64.61,-999.00,2.3000,2.3000,-999.0000,0.9,-999,1.9,100.0,,-999.0000,30.8990,-999.0000,12.7
2022-05-20 09:15:00,2022-05-20 02:15:00,-999.0000,64.61,-999.00,2.3000,2.3000,-999.0000,0.9,-999,1.9,100.0,,-999.0000,30.8960,-999.0000,12.7
2022-05-20 09:30:00,2022-05-20 02:30:00,-999.0000,64.61,-999.00,2.4000,2.4000,-999.0000,1.1,-999,2.0,100.0,,-999.0000,30.8960,-999.0000,12.7
2022-05-20 09:45:00,2022-05-20 02:45:00,-999.0000,64.61,-999.00,2.4000,2.4000,-999.0000,1.1,-999,2.0,100.0,,-999.0000,30.8960,-999.0000,12.7
2022-05-20 10:00:00,2022-05-20 03:00:00,-999.0000,64.61,-999.00,2.4000,2.4000,-999.0000,0.9,-999,2.1,100.0,,-999.0000,30.8990,-999.0000,12.7
2022-05-20 10:15:00,2022-05-20 03:15:00,-999.0000,64.61,-999.00,2.4000,2.4000,-999.0000,1.3,-999,2.0,100.0,,-999.0000,30.8960,-999.0000,12.7
2022-05-20 10:30:00,2022-05-20 03:30:00,-999.0000,64.61,-999.00,2.2000,2.2000,-999.0000,1.3,-999,1.8,100.0,,-999.0000,30.8930,-999.0000,12.7
2022-05-20 10:45:00,2022-05-20 03:45:00,-999.0000,64.61,-999.00,2.0000,1.8592,-999.0000,1.3,-999,1.5,99.0,,-999.0000,30.8960,-999.0000,12.7
2022-05-20 11:00:00,2022-05-20 04:00:00,-999.0000,64.61,-999.00,1.9000,1.9000,-999.0000,0.9,-999,1.5,100.0,,-999.0000,30.8930,-999.0000,12.7
2022-05-20 11:15:00,2022-05-20 04:15:00,-999.0000,64.61,-999.00,2.0000,2.0000,-999.0000,1.1,-999,1.6,100.0,,-999.0000,30.8930,-999.0000,12.6
2022-05-20 11:30:00,2022-05-20 04:30:00,-999.0000,64.61,-999.00,2.0000,2.0000,-999.0000,1.1,-999,1.6,100.0,,-999.0000,30.8930,-999.0000,12.6
2022-05-20 11:45:00,2022-05-20 04:45:00,-999.0000,64.61,-999.00,2.0000,2.0000,-999.0000,0.9,-999,1.6,100.0,,-999.0000,30.8960,-999.0000,12.6
2022-05-20 12:00:00,2022-05-20 05:00:00,-999.0000,64.61,-999.00,2.0000,2.0000,-999.0000,1.1,-999,1.6,100.0,,-999.0000,30.8930,-999.0000,12.6
2022-05-20 12:15:00,2022-05-20 05:15:00,-999.0000,64.61,-999.00,2.0000,2.0000,-999.0000,0.9,-999,1.7,100.0,,-999.0000,30.8930,-999.0000,12.6
2022-05-20 12:30:00,2022-05-20 05:30:00,-999.0000,64.61,-999.00,2.2000,2.0590,-999.0000,1.1,-999,1.6,99.0,,-999.0000,30.8960,-999.0000,12.6
2022-05-20 12:45:00,2022-05-20 05:45:00,-999.0000,64.61,-999.00,2.1000,2.1000,-999.0000,1.1,-999,1.7,100.0,,-999.0000,30.8990,-999.0000,12.6
2022-05-20 13:00:00,2022-05-20 06:00:00,-999.0000,64.61,-999.00,2.0000,2.0000,-999.0000,0.9,-999,1.7,100.0,,-999.0000,30.8990,-999.0000,12.6
2022-05-20 13:15:00,2022-05-20 06:15:00,-999.0000,64.61,-999.00,2.0000,2.0000,-999.0000,0.9,-999,1.7,100.0,,-999.0000,30.8990,-999.0000,12.6
2022-05-20 13:30:00,2022-05-20 06:30:00,-999.0000,64.61,-999.00,2.1000,2.1000,-999.0000,1.1,-999,1.8,100.0,,-999.0000,30.9060,-999.0000,12.6
2022-05-20 13:45:00,2022-05-20 06:45:00,-999.0000,64.61,-999.00,2.2000,2.0590,-999.0000,1.1,-999,1.8,99.0,,-999.0000,30.9030,-999.0000,12.6
2022-05-20 14:00:00,2022-05-20 07:00:00,-999.0000,64.61,-999.00,2.3000,2.0164,-999.0000,1.1,-999,2.0,98.0,,-999.0000,30.9030,-999.0000,12.7
2022-05-20 14:15:00,2022-05-20 07:15:00,-999.0000,64.61,-999.00,2.5000,2.3586,-999.0000,1.3,-999,2.2,99.0,,-999.0000,30.9130,-999.0000,12.7
2022-05-20 14:30:00,2022-05-20 07:30:00,-999.0000,64.61,-999.00,2.7000,2.5584,-999.0000,1.4,-999,2.4,99.0,,-999.0000,30.9090,-999.0000,12.8
2022-05-20 14:45:00,2022-05-20 07:45:00,-999.0000,64.61,-999.00,2.8000,2.5153,-999.0000,1.8,-999,2.4,98.0,,-999.0000,30.9130,-999.0000,12.8
2022-05-20 15:00:00,2022-05-20 08:00:00,-999.0000,64.61,-999.00,2.7000,2.7000,-999.0000,2.0,-999,2.4,100.0,,-999.0000,30.9160,-999.0000,12.9
2022-05-20 15:15:00,2022-05-20 08:15:00,-999.0000,64.61,-999.00,2.5000,2.3586,-999.0000,2.3,-999,2.9,99.0,,-999.0000,30.9130,-999.0000,12.9
2022-05-20 15:30:00,2022-05-20 08:30:00,-999.0000,64.61,-999.00,3.0000,3.0000,-999.0000,2.5,-999,3.2,100.0,,-999.0000,30.9090,-999.0000,13.0
2022-05-20 15:45:00,2022-05-20 08:45:00,-999.0000,64.61,-999.00,3.9000,3.9000,-999.0000,2.8,-999,4.2,100.0,,-999.0000,30.9090,-999.0000,13.2
2022-05-20 16:00:00,2022-05-20 09:00:00,-999.0000,64.61,-999.00,4.9000,4.3155,-999.0000,3.9,-999,5.0,96.0,,-999.0000,30.9060,-999.0000,14.0
2022-05-20 16:15:00,2022-05-20 09:15:00,-999.0000,64.61,-999.00,6.0000,2.9859,-999.0000,5.1,-999,5.4,81.0,,-999.0000,30.9130,-999.0000,14.5
2022-05-20 16:30:00,2022-05-20 09:30:00,-999.0000,64.61,-999.00,5.9000,1.4288,-999.0000,7.2,-999,5.4,73.0,,-999.0000,30.9130,-999.0000,14.0
2022-05-20 16:45:00,2022-05-20 09:45:00,-999.0000,64.61,-999.00,6.2000,3.3549,-999.0000,8.5,-999,6.1,82.0,,-999.0000,30.9060,-999.0000,14.4
2022-05-20 17:00:00,2022-05-20 10:00:00,-999.0000,64.61,-999.00,7.0000,2.6812,-999.0000,10.9,-999,7.0,74.0,,-999.0000,30.8990,-999.0000,14.5
2022-05-20 17:15:00,2022-05-20 10:15:00,-999.0000,64.61,-999.00,7.5000,3.7277,-999.0000,13.7,-999,7.7,77.0,,-999.0000,30.9030,-999.0000,13.9
2022-05-20 17:30:00,2022-05-20 10:30:00,-999.0000,64.61,-999.00,6.5000,2.5733,-999.0000,15.2,-999,6.9,76.0,,-999.0000,30.8990,-999.0000,14.0
2022-05-20 17:45:00,2022-05-20 10:45:00,-999.0000,64.61,-999.00,6.3000,2.3795,-999.0000,14.6,-999,6.8,76.0,,-999.0000,30.8990,-999.0000,14.0
2022-05-20 18:00:00,2022-05-20 11:00:00,-999.0000,64.61,-999.00,6.4000,2.6605,-999.0000,13.7,-999,6.8,77.0,,-999.0000,30.8930,-999.0000,14.1
2022-05-20 18:15:00,2022-05-20 11:15:00,-999.0000,64.61,-999.00,6.8000,3.4117,-999.0000,12.9,-999,7.1,79.0,,-999.0000,30.8930,-999.0000,14.0
2022-05-20 18:30:00,2022-05-20 11:30:00,-999.0000,64.61,-999.00,7.7000,3.5476,-999.0000,12.7,-999,8.1,75.0,,-999.0000,30.8930,-999.0000,14.2
2022-05-20 18:45:00,2022-05-20 11:45:00,-999.0000,64.61,-999.00,7.4000,2.8753,-999.0000,13.2,-999,8.1,73.0,,-999.0000,30.8890,-999.0000,14.1
2022-05-20 19:00:00,2022-05-20 12:00:00,-999.0000,64.61,-999.00,7.2000,3.4367,-999.0000,13.0,-999,7.7,77.0,,-999.0000,30.8830,-999.0000,14.2
2022-05-20 19:15:00,2022-05-20 12:15:00,-999.0000,64.61,-999.00,7.8000,3.8326,-999.0000,12.7,-999,8.2,76.0,,-999.0000,30.8890,-999.0000,14.0
2022-05-20 19:30:00,2022-05-20 12:30:00,-999.0000,64.61,-999.00,7.7000,3.3572,-999.0000,12.7,-999,8.5,74.0,,-999.0000,30.8860,-999.0000,14.6
2022-05-20 19:45:00,2022-05-20 12:45:00,-999.0000,64.61,-999.00,7.9000,4.2999,-999.0000,12.5,-999,8.6,78.0,,-999.0000,30.8860,-999.0000,14.4
2022-05-20 20:00:00,2022-05-20 13:00:00,-999.0000,64.61,-999.00,7.9000,3.9295,-999.0000,12.3,-999,8.7,76.0,,-999.0000,30.8830,-999.0000,14.2
2022-05-20 20:15:00,2022-05-20 13:15:00,-999.0000,64.61,-999.00,7.7000,4.2874,-999.0000,12.2,-999,8.5,79.0,,-999.0000,30.8830,-999.0000,14.1
2022-05-20 20:30:00,2022-05-20 13:30:00,-999.0000,64.61,-999.00,8.0000,4.7594,-999.0000,12.0,-999,8.5,80.0,,-999.0000,30.8830,-999.0000,14.1
2022-05-20 20:45:00,2022-05-20 13:45:00,-999.0000,64.61,-999.00,8.2000,4.7738,-999.0000,11.6,-999,8.8,79.0,,-999.0000,30.8760,-999.0000,14.1
2022-05-20 21:00:00,2022-05-20 14:00:00,-999.0000,64.61,-999.00,8.6000,4.7948,-999.0000,11.5,-999,9.2,77.0,,-999.0000,30.8730,-999.0000,14.0
2022-05-20 21:15:00,2022-05-20 14:15:00,-999.0000,64.61,-999.00,9.4000,4.8034,-999.0000,11.6,-999,10.0,73.0,,-999.0000,30.8730,-999.0000,13.9
2022-05-20 21:30:00,2022-05-20 14:30:00,-999.0000,64.61,-999.00,9.8000,4.5867,-999.0000,11.8,-999,10.5,70.0,,-999.0000,30.8620,-999.0000,13.9
2022-05-20 21:45:00,2022-05-20 14:45:00,-999.0000,64.61,-999.00,10.0000,5.1831,-999.0000,12.2,-999,10.6,72.0,,-999.0000,30.8690,-999.0000,13.9
2022-05-20 22:00:00,2022-05-20 15:00:00,-999.0000,64.61,-999.00,10.2000,4.7640,-999.0000,12.3,-999,10.8,69.0,,-999.0000,30.8660,-999.0000,13.9
2022-05-20 22:15:00,2022-05-20 15:15:00,-999.0000,64.61,-999.00,10.4000,4.7460,-999.0000,12.5,-999,11.5,68.0,,-999.0000,30.8590,-999.0000,14.1
2022-05-20 22:30:00,2022-05-20 15:30:00,-999.0000,64.61,-999.00,10.1000,4.0331,-999.0000,12.7,-999,13.3,66.0,,-999.0000,30.8460,-999.0000,14.3
2022-05-20 22:45:00,2022-05-20 15:45:00,-999.0000,64.61,-999.00,10.3000,4.0059,-999.0000,13.0,-999,13.0,65.0,,-999.0000,30.8490,-999.0000,14.5
2022-05-20 23:00:00,2022-05-20 16:00:00,-999.0000,64.61,-999.00,10.8000,4.0352,-999.0000,13.9,-999,11.6,63.0,,-999.0000,30.8420,-999.0000,13.8
2022-05-20 23:15:00,2022-05-20 16:15:00,-999.0000,64.61,-999.00,10.3000,4.2236,-999.0000,14.1,-999,11.0,66.0,,-999.0000,30.8520,-999.0000,14.0
2022-05-20 23:30:00,2022-05-20 16:30:00,-999.0000,64.61,-999.00,10.4000,4.1010,-999.0000,13.9,-999,10.9,65.0,,-999.0000,30.8420,-999.0000,14.1
2022-05-20 23:45:00,2022-05-20 16:45:00,-999.0000,64.61,-999.00,9.9000,4.2681,-999.0000,13.4,-999,10.4,68.0,,-999.0000,30.8460,-999.0000,14.3
2022-05-21 00:00:00,2022-05-20 17:00:00,-999.0000,64.61,-999.00,9.8000,4.1725,-999.0000,12.9,-999,10.3,68.0,,-999.0000,30.8390,-999.0000,14.5
2022-05-21 00:15:00,2022-05-20 17:15:00,-999.0000,64.61,-999.00,9.8000,3.9613,-999.0000,12.5,-999,10.2,67.0,,-999.0000,30.8360,-999.0000,14.1
2022-05-21 00:30:00,2022-05-20 17:30:00,-999.0000,64.61,-999.00,10.1000,3.8157,-999.0000,12.2,-999,10.4,65.0,,-999.0000,30.8290,-999.0000,14.4
2022-05-21 00:45:00,2022-05-20 17:45:00,-999.0000,64.61,-999.00,10.5000,3.9750,-999.0000,12.0,-999,10.8,64.0,,-999.0000,30.8290,-999.0000,14.4
2022-05-21 01:00:00,2022-05-20 18:00:00,-999.0000,64.61,-999.00,10.4000,3.6562,-999.0000,11.8,-999,10.8,63.0,,-999.0000,30.8320,-999.0000,14.1
2022-05-21 01:15:00,2022-05-20 18:15:00,-999.0000,64.61,-999.00,10.2000,3.6903,-999.0000,11.8,-999,10.4,64.0,,-999.0000,30.8290,-999.0000,14.4
2022-05-21 01:30:00,2022-05-20 18:30:00,-999.0000,64.61,-999.00,10.0000,3.2772,-999.0000,11.6,-999,10.0,63.0,,-999.0000,30.8320,-999.0000,14.3
2022-05-21 01:45:00,2022-05-20 18:45:00,-999.0000,64.61,-999.00,9.8000,3.3106,-999.0000,11.1,-999,9.7,64.0,,-999.0000,30.8290,-999.0000,14.5
2022-05-21 02:00:00,2022-05-20 19:00:00,-999.0000,64.61,-999.00,9.8000,3.3106,-999.0000,10.8,-999,9.6,64.0,,-999.0000,30.8290,-999.0000,14.5
2022-05-21 02:15:00,2022-05-20 19:15:00,-999.0000,64.61,-999.00,9.3000,3.2709,-999.0000,10.4,-999,9.2,66.0,,-999.0000,30.8290,-999.0000,13.7
2022-05-21 02:30:00,2022-05-20 19:30:00,-999.0000,64.61,-999.00,8.9000,3.3120,-999.0000,10.1,-999,8.7,68.0,,-999.0000,30.8320,-999.0000,14.3
2022-05-21 02:45:00,2022-05-20 19:45:00,-999.0000,64.61,-999.00,8.6000,4.2262,-999.0000,9.5,-999,8.5,74.0,,-999.0000,30.8360,-999.0000,14.0
2022-05-21 03:00:00,2022-05-20 20:00:00,-999.0000,64.61,-999.00,8.2000,4.0311,-999.0000,9.2,-999,8.0,75.0,,-999.0000,30.8320,-999.0000,13.4
2022-05-21 03:15:00,2022-05-20 20:15:00,-999.0000,64.61,-999.00,7.9000,5.5334,-999.0000,8.8,-999,7.7,85.0,,-999.0000,30.8390,-999.0000,13.0
2022-05-21 03:30:00,2022-05-20 20:30:00,-999.0000,64.61,-999.00,7.4000,5.2110,-999.0000,8.3,-999,7.2,86.0,,-999.0000,30.8420,-999.0000,13.0
2022-05-21 03:45:00,2022-05-20 20:45:00,-999.0000,64.61,-999.00,7.1000,5.0822,-999.0000,7.8,-999,6.9,87.0,,-999.0000,30.8490,-999.0000,12.9
2022-05-21 04:00:00,2022-05-20 21:00:00,-999.0000,64.61,-999.00,6.8000,4.9510,-999.0000,7.4,-999,6.6,88.0,,-999.0000,30.8460,-999.0000,12.9
2022-05-21 04:15:00,2022-05-20 21:15:00,-999.0000,64.61,-999.00,6.7000,5.0147,-999.0000,7.1,-999,6.4,89.0,,-999.0000,30.8520,-999.0000,12.9
2022-05-21 04:30:00,2022-05-20 21:30:00,-999.0000,64.61,-999.00,6.5000,5.1365,-999.0000,6.7,-999,6.2,91.0,,-999.0000,30.8520,-999.0000,12.9
2022-05-21 04:45:00,2022-05-20 21:45:00,-999.0000,64.61,-999.00,6.1000,4.7409,-999.0000,6.4,-999,5.7,91.0,,-999.0000,30.8520,-999.0000,12.9
2022-05-21 05:00:00,2022-05-20 22:00:00,-999.0000,64.61,-999.00,5.6000,4.4024,-999.0000,5.8,-999,5.1,92.0,,-999.0000,30.8660,-999.0000,12.8
2022-05-21 05:15:00,2022-05-20 22:15:00,-999.0000,64.61,-999.00,5.1000,3.9072,-999.0000,5.5,-999,4.7,92.0,,-999.0000,30.8620,-999.0000,12.8
2022-05-21 05:30:00,2022-05-20 22:30:00,-999.0000,64.61,-999.00,4.6000,3.4120,-999.0000,5.0,-999,4.3,92.0,,-999.0000,30.8660,-999.0000,12.8
2022-05-21 05:45:00,2022-05-20 22:45:00,-999.0000,64.61,-999.00,4.2000,3.1687,-999.0000,4.6,-999,3.9,93.0,,-999.0000,30.8620,-999.0000,12.8
2022-05-21 06:00:00,2022-05-20 23:00:00,-999.0000,64.61,-999.00,3.9000,2.8712,-999.0000,4.1,-999,3.5,93.0,,-999.0000,30.8660,-999.0000,12.8
2022-05-21 06:15:00,2022-05-20 23:15:00,-999.0000,64.61,-999.00,3.6000,2.7244,-999.0000,3.7,-999,3.3,94.0,,-999.0000,30.8660,-999.0000,12.8
2022-05-21 06:30:00,2022-05-20 23:30:00,-999.0000,64.61,-999.00,3.4000,2.6749,-999.0000,3.4,-999,3.1,95.0,,-999.0000,30.8620,-999.0000,12.8
2022-05-21 06:45:00,2022-05-20 23:45:00,-999.0000,64.61,-999.00,3.3000,2.5755,-999.0000,3.0,-999,2.9,95.0,,-999.0000,30.8660,-999.0000,12.8
2022-05-21 07:00:00,2022-05-21 00:00:00,-999.0000,64.61,-999.00,3.1000,2.5240,-999.0000,2.7,-999,2.7,96.0,,-999.0000,30.8690,-999.0000,12.8
2022-05-21 07:15:00,2022-05-21 00:15:00,-999.0000,64.61,-999.00,3.0000,2.4245,-999.0000,2.3,-999,2.6,96.0,,-999.0000,30.8660,-999.0000,12.7
2022-05-21 07:30:00,2022-05-21 00:30:00,-999.0000,64.61,-999.00,2.9000,2.3249,-999.0000,2.1,-999,2.5,96.0,,-999.0000,30.8730,-999.0000,12.8
2022-05-21 07:45:00,2022-05-21 00:45:00,-999.0000,64.61,-999.00,2.8000,2.2254,-999.0000,2.0,-999,2.5,96.0,,-999.0000,30.8660,-999.0000,12.7
2022-05-21 08:00:00,2022-05-21 01:00:00,-999.0000,64.61,-999.00,2.8000,2.2254,-999.0000,1.8,-999,2.4,96.0,,-999.0000,30.8620,-999.0000,12.7
2022-05-21 08:15:00,2022-05-21 01:15:00,-999.0000,64.61,-999.00,2.6000,2.0263,-999.0000,1.6,-999,2.2,96.0,,-999.0000,30.8620,-999.0000,12.7
2022-05-21 08:30:00,2022-05-21 01:30:00,-999.0000,64.61,-999.00,2.4000,1.8273,-999.0000,1.6,-999,2.0,96.0,,-999.0000,30.8620,-999.0000,12.7
2022-05-21 08:45:00,2022-05-21 01:45:00,-999.0000,64.61,-999.00,2.4000,2.1162,-999.0000,1.3,-999,2.0,98.0,,-999.0000,30.8590,-999.0000,12.7
2022-05-21 09:00:00,2022-05-21 02:00:00,-999.0000,64.61,-999.00,2.4000,2.1162,-999.0000,1.1,-999,2.0,98.0,,-999.0000,30.8620,-999.0000,12.7
2022-05-21 09:15:00,2022-05-21 02:15:00,-999.0000,64.61,-999.00,2.2000,1.7731,-999.0000,1.3,-999,1.8,97.0,,-999.0000,30.8560,-999.0000,12.7
2022-05-21 09:30:00,2022-05-21 02:30:00,-999.0000,64.61,-999.00,2.1000,1.8169,-999.0000,0.9,-999,1.7,98.0,,-999.0000,30.8560,-999.0000,12.7
2022-05-21 09:45:00,2022-05-21 02:45:00,-999.0000,64.61,-999.00,2.0000,1.7171,-999.0000,0.9,-999,1.6,98.0,,-999.0000,30.8560,-999.0000,12.7
2022-05-21 10:00:00,2022-05-21 03:00:00,-999.0000,64.61,-999.00,1.9000,1.6174,-999.0000,0.7,-999,1.4,98.0,,-999.0000,30.8590,-999.0000,12.7
2022-05-21 10:15:00,2022-05-21 03:15:00,-999.0000,64.61,-999.00,1.8000,1.6594,-999.0000,0.6,-999,1.4,99.0,,-999.0000,30.8560,-999.0000,12.6
2022-05-21 10:30:00,2022-05-21 03:30:00,-999.0000,64.61,-999.00,1.7000,1.5595,-999.0000,0.7,-999,1.4,99.0,,-999.0000,30.8560,-999.0000,12.7
2022-05-21 10:45:00,2022-05-21 03:45:00,-999.0000,64.61,-999.00,1.7000,1.5595,-999.0000,0.6,-999,1.3,99.0,,-999.0000,30.8490,-999.0000,12.7
2022-05-21 11:00:00,2022-05-21 04:00:00,-999.0000,64.61,-999.00,1.6000,1.4597,-999.0000,0.2,-999,1.3,99.0,,-999.0000,30.8490,-999.0000,12.6
2022-05-21 11:15:00,2022-05-21 04:15:00,-999.0000,64.61,-999.00,1.5000,1.2183,-999.0000,0.2,-999,1.1,98.0,,-999.0000,30.8490,-999.0000,12.6
2022-05-21 11:30:00,2022-05-21 04:30:00,-999.0000,64.61,-999.00,1.4000,1.2599,-999.0000,0.2,-999,1.0,99.0,,-999.0000,30.8460,-999.0000,12.6
2022-05-21 11:45:00,2022-05-21 04:45:00,-999.0000,64.61,-999.00,1.4000,1.2599,-999.0000,0.0,-999,1.0,99.0,,-999.0000,30.8460,-999.0000,12.6
2022-05-21 12:00:00,2022-05-21 05:00:00,-999.0000,64.61,-999.00,1.2000,1.0601,-999.0000,0.0,-999,0.9,99.0,,-999.0000,30.8460,-999.0000,12.6
2022-05-21 12:15:00,2022-05-21 05:15:00,-999.0000,64.61,-999.00,1.3000,1.3000,-999.0000,0.0,-999,0.9,100.0,,-999.0000,30.8490,-999.0000,12.6
2022-05-21 12:30:00,2022-05-21 05:30:00,-999.0000,64.61,-999.00,1.2000,1.0601,-999.0000,0.0,-999,0.8,99.0,,-999.0000,30.8490,-999.0000,12.6
2022-05-21 12:45:00,2022-05-21 05:45:00,-999.0000,64.61,-999.00,1.2000,1.0601,-999.0000,-0.3,-999,0.8,99.0,,-999.0000,30.8520,-999.0000,12.6
2022-05-21 13:00:00,2022-05-21 06:00:00,-999.0000,64.61,-999.00,1.1000,0.9602,-999.0000,-0.3,-999,0.8,99.0,,-999.0000,30.8560,-999.0000,12.6
2022-05-21 13:15:00,2022-05-21 06:15:00,-999.0000,64.61,-999.00,1.2000,1.0601,-999.0000,-0.3,-999,0.8,99.0,,-999.0000,30.8590,-999.0000,12.6
2022-05-21 13:30:00,2022-05-21 06:30:00,-999.0000,64.61,-999.00,1.3000,1.3000,-999.0000,-0.1,-999,0.9,100.0,,-999.0000,30.8620,-999.0000,12.6
2022-05-21 13:45:00,2022-05-21 06:45:00,-999.0000,64.61,-999.00,1.3000,1.3000,-999.0000,-0.1,-999,1.0,100.0,,-999.0000,30.8620,-999.0000,12.6
2022-05-21 14:00:00,2022-05-21 07:00:00,-999.0000,64.61,-999.00,1.3000,1.3000,-999.0000,-0.3,-999,1.0,100.0,,-999.0000,30.8620,-999.0000,12.7
2022-05-21 14:15:00,2022-05-21 07:15:00,-999.0000,64.61,-999.00,1.4000,1.2599,-999.0000,-0.1,-999,1.0,99.0,,-999.0000,30.8690,-999.0000,12.6
2022-05-21 14:30:00,2022-05-21 07:30:00,-999.0000,64.61,-999.00,1.4000,1.2599,-999.0000,0.0,-999,1.1,99.0,,-999.0000,30.8660,-999.0000,12.7
2022-05-21 14:45:00,2022-05-21 07:45:00,-999.0000,64.61,-999.00,1.5000,1.5000,-999.0000,0.0,-999,1.2,100.0,,-999.0000,30.8690,-999.0000,12.7
2022-05-21 15:00:00,2022-05-21 08:00:00,-999.0000,64.61,-999.00,1.7000,1.7000,-999.0000,0.2,-999,1.5,100.0,,-999.0000,30.8660,-999.0000,12.7
2022-05-21 15:15:00,2022-05-21 08:15:00,-999.0000,64.61,-999.00,2.2000,2.2000,-999.0000,0.4,-999,2.7,100.0,,-999.0000,30.8620,-999.0000,12.7
2022-05-21 15:30:00,2022-05-21 08:30:00,-999.0000,64.61,-999.00,3.3000,3.3000,-999.0000,1.1,-999,3.3,100.0,,-999.0000,30.8620,-999.0000,12.8
2022-05-21 15:45:00,2022-05-21 08:45:00,-999.0000,64.61,-999.00,4.3000,4.0118,-999.0000,1.8,-999,4.1,98.0,,-999.0000,30.8620,-999.0000,12.9
2022-05-21 16:00:00,2022-05-21 09:00:00,-999.0000,64.61,-999.00,5.6000,4.8619,-999.0000,2.7,-999,4.7,95.0,,-999.0000,30.8660,-999.0000,13.1
2022-05-21 16:15:00,2022-05-21 09:15:00,-999.0000,64.61,-999.00,6.9000,5.3729,-999.0000,3.7,-999,5.3,90.0,,-999.0000,30.8660,-999.0000,13.3
2022-05-21 16:30:00,2022-05-21 09:30:00,-999.0000,64.61,-999.00,7.2000,5.6692,-999.0000,6.5,-999,6.3,90.0,,-999.0000,30.8660,-999.0000,14.7
2022-05-21 16:45:00,2022-05-21 09:45:00,-999.0000,64.61,-999.00,7.5000,5.3092,-999.0000,10.2,-999,7.6,86.0,,-999.0000,30.8660,-999.0000,14.6
2022-05-21 17:00:00,2022-05-21 10:00:00,-999.0000,64.61,-999.00,9.6000,3.9813,-999.0000,13.7,-999,8.9,68.0,,-999.0000,30.8620,-999.0000,14.6
2022-05-21 17:15:00,2022-05-21 10:15:00,-999.0000,64.61,-999.00,10.7000,3.7128,-999.0000,16.6,-999,10.1,62.0,,-999.0000,30.8660,-999.0000,13.9
2022-05-21 17:30:00,2022-05-21 10:30:00,-999.0000,64.61,-999.00,10.9000,2.7107,-999.0000,18.5,-999,10.9,57.0,,-999.0000,30.8620,-999.0000,14.1
2022-05-21 17:45:00,2022-05-21 10:45:00,-999.0000,64.61,-999.00,12.1000,3.3272,-999.0000,20.1,-999,11.9,55.0,,-999.0000,30.8620,-999.0000,14.0
2022-05-21 18:00:00,2022-05-21 11:00:00,-999.0000,64.61,-999.00,12.5000,2.0693,-999.0000,22.4,-999,12.7,49.0,,-999.0000,30.8590,-999.0000,14.2
2022-05-21 18:15:00,2022-05-21 11:15:00,-999.0000,64.61,-999.00,12.9000,2.1475,-999.0000,23.9,-999,13.3,48.0,,-999.0000,30.8660,-999.0000,14.2
2022-05-21 18:30:00,2022-05-21 11:30:00,-999.0000,64.61,-999.00,12.2000,1.7933,-999.0000,24.6,-999,12.8,49.0,,-999.0000,30.8590,-999.0000,14.2
2022-05-21 18:45:00,2022-05-21 11:45:00,-999.0000,64.61,-999.00,13.3000,2.8052,-999.0000,23.9,-999,13.3,49.0,,-999.0000,30.8590,-999.0000,13.9
2022-05-21 19:00:00,2022-05-21 12:00:00,-999.0000,64.61,-999.00,12.2000,2.3544,-999.0000,23.2,-999,12.9,51.0,,-999.0000,30.8620,-999.0000,13.9
2022-05-21 19:15:00,2022-05-21 12:15:00,-999.0000,64.61,-999.00,11.9000,2.3497,-999.0000,22.0,-999,12.5,52.0,,-999.0000,30.8590,-999.0000,14.0
2022-05-21 19:30:00,2022-05-21 12:30:00,-999.0000,64.61,-999.00,12.4000,2.8129,-999.0000,20.4,-999,12.7,52.0,,-999.0000,30.8620,-999.0000,14.3
2022-05-21 19:45:00,2022-05-21 12:45:00,-999.0000,64.61,-999.00,11.9000,2.3497,-999.0000,19.4,-999,12.3,52.0,,-999.0000,30.8620,-999.0000,13.9
2022-05-21 20:00:00,2022-05-21 13:00:00,-999.0000,64.61,-999.00,13.3000,3.3710,-999.0000,18.3,-999,13.8,51.0,,-999.0000,30.8620,-999.0000,14.0
2022-05-21 20:15:00,2022-05-21 13:15:00,-999.0000,64.61,-999.00,13.0000,3.3687,-999.0000,18.1,-999,15.3,52.0,,-999.0000,30.8560,-999.0000,14.4
2022-05-21 20:30:00,2022-05-21 13:30:00,-999.0000,64.61,-999.00,13.4000,3.4634,-999.0000,17.8,-999,16.1,51.0,,-999.0000,30.8520,-999.0000,14.1
2022-05-21 20:45:00,2022-05-21 13:45:00,-999.0000,64.61,-999.00,13.7000,4.0169,-999.0000,17.6,-999,15.1,52.0,,-999.0000,30.8520,-999.0000,13.9
2022-05-21 21:00:00,2022-05-21 14:00:00,-999.0000,64.61,-999.00,13.8000,2.6763,-999.0000,17.6,-999,15.1,47.0,,-999.0000,30.8460,-999.0000,13.8
2022-05-21 21:15:00,2022-05-21 14:15:00,-999.0000,64.61,-999.00,13.6000,3.3672,-999.0000,17.6,-999,14.9,50.0,,-999.0000,30.8520,-999.0000,13.9
2022-05-21 21:30:00,2022-05-21 14:30:00,-999.0000,64.61,-999.00,13.7000,3.1731,-999.0000,17.4,-999,14.7,49.0,,-999.0000,30.8520,-999.0000,14.3
2022-05-21 21:45:00,2022-05-21 14:45:00,-999.0000,64.61,-999.00,13.2000,2.7132,-999.0000,17.1,-999,14.2,49.0,,-999.0000,30.8560,-999.0000,13.8
2022-05-21 22:00:00,2022-05-21 15:00:00,-999.0000,64.61,-999.00,13.7000,2.8816,-999.0000,16.6,-999,14.6,48.0,,-999.0000,30.8520,-999.0000,14.1
2022-05-21 22:15:00,2022-05-21 15:15:00,-999.0000,64.61,-999.00,13.3000,1.9170,-999.0000,16.4,-999,15.4,46.0,,-999.0000,30.8560,-999.0000,14.0
2022-05-21 22:30:00,2022-05-21 15:30:00,-999.0000,64.61,-999.00,12.6000,2.9982,-999.0000,16.2,-999,16.1,52.0,,-999.0000,30.8620,-999.0000,14.5
2022-05-21 22:45:00,2022-05-21 15:45:00,-999.0000,64.61,-999.00,12.1000,3.5828,-999.0000,16.4,-999,14.7,56.0,,-999.0000,30.8520,-999.0000,14.0
2022-05-21 23:00:00,2022-05-21 16:00:00,-999.0000,64.61,-999.00,13.7000,2.5848,-999.0000,16.6,-999,14.0,47.0,,-999.0000,30.8490,-999.0000,13.7
2022-05-21 23:15:00,2022-05-21 16:15:00,-999.0000,64.61,-999.00,13.7000,1.6593,-999.0000,16.6,-999,13.7,44.0,,-999.0000,30.8460,-999.0000,14.1
2022-05-21 23:30:00,2022-05-21 16:30:00,-999.0000,64.61,-999.00,13.8000,3.5515,-999.0000,16.4,-999,13.9,50.0,,-999.0000,30.8420,-999.0000,13.9
2022-05-21 23:45:00,2022-05-21 16:45:00,-999.0000,64.61,-999.00,14.0000,3.1569,-999.0000,15.7,-999,14.0,48.0,,-999.0000,30.8390,-999.0000,14.3
2022-05-22 00:00:00,2022-05-21 17:00:00,-999.0000,64.61,-999.00,13.6000,3.9243,-999.0000,15.5,-999,13.9,52.0,,-999.0000,30.8490,-999.0000,14.4
2022-05-22 00:15:00,2022-05-21 17:15:00,-999.0000,64.61,-999.00,13.1000,3.4613,-999.0000,15.2,-999,13.6,52.0,,-999.0000,30.8420,-999.0000,14.1
2022-05-22 00:30:00,2022-05-21 17:30:00,-999.0000,64.61,-999.00,12.6000,3.2677,-999.0000,15.0,-999,12.9,53.0,,-999.0000,30.8520,-999.0000,14.0
2022-05-22 00:45:00,2022-05-21 17:45:00,-999.0000,64.61,-999.00,12.2000,3.4205,-999.0000,14.3,-999,12.2,55.0,,-999.0000,30.8520,-999.0000,14.3
2022-05-22 01:00:00,2022-05-21 18:00:00,-999.0000,64.61,-999.00,12.2000,3.1605,-999.0000,13.9,-999,12.2,54.0,,-999.0000,30.8590,-999.0000,14.1
2022-05-22 01:15:00,2022-05-21 18:15:00,-999.0000,64.61,-999.00,12.3000,3.7697,-999.0000,13.7,-999,12.3,56.0,,-999.0000,30.8590,-999.0000,14.1
2022-05-22 01:30:00,2022-05-21 18:30:00,-999.0000,64.61,-999.00,12.1000,3.3272,-999.0000,13.6,-999,12.1,55.0,,-999.0000,30.8590,-999.0000,13.8
2022-05-22 01:45:00,2022-05-21 18:45:00,-999.0000,64.61,-999.00,11.9000,3.8944,-999.0000,13.4,-999,11.8,58.0,,-999.0000,30.8590,-999.0000,13.9
2022-05-22 02:00:00,2022-05-21 19:00:00,-999.0000,64.61,-999.00,11.4000,5.4880,-999.0000,13.0,-999,11.5,67.0,,-999.0000,30.8660,-999.0000,14.5
2022-05-22 02:15:00,2022-05-21 19:15:00,-999.0000,64.61,-999.00,10.5000,5.4625,-999.0000,12.7,-999,10.6,71.0,,-999.0000,30.8690,-999.0000,14.0
2022-05-22 02:30:00,2022-05-21 19:30:00,-999.0000,64.61,-999.00,10.1000,5.0782,-999.0000,12.2,-999,10.2,71.0,,-999.0000,30.8690,-999.0000,14.1
2022-05-22 02:45:00,2022-05-21 19:45:00,-999.0000,64.61,-999.00,10.1000,5.4781,-999.0000,11.6,-999,9.9,73.0,,-999.0000,30.8730,-999.0000,14.1
2022-05-22 03:00:00,2022-05-21 20:00:00,-999.0000,64.61,-999.00,10.1000,5.6744,-999.0000,11.3,-999,9.8,74.0,,-999.0000,30.8830,-999.0000,14.4
2022-05-22 03:15:00,2022-05-21 20:15:00,-999.0000,64.61,-999.00,9.9000,6.4276,-999.0000,10.9,-999,9.5,79.0,,-999.0000,30.8890,-999.0000,13.1
2022-05-22 03:30:00,2022-05-21 20:30:00,-999.0000,64.61,-999.00,9.4000,4.9986,-999.0000,10.4,-999,9.0,74.0,,-999.0000,30.8960,-999.0000,13.0
2022-05-22 03:45:00,2022-05-21 20:45:00,-999.0000,64.61,-999.00,8.8000,5.5389,-999.0000,10.1,-999,8.4,80.0,,-999.0000,30.8930,-999.0000,13.0
2022-05-22 04:00:00,2022-05-21 21:00:00,-999.0000,64.61,-999.00,8.0000,5.2883,-999.0000,9.4,-999,7.9,83.0,,-999.0000,30.8930,-999.0000,13.0
2022-05-22 04:15:00,2022-05-21 21:15:00,-999.0000,64.61,-999.00,7.7000,4.8208,-999.0000,8.8,-999,7.4,82.0,,-999.0000,30.9030,-999.0000,12.9
2022-05-22 04:30:00,2022-05-21 21:30:00,-999.0000,64.61,-999.00,7.2000,4.5054,-999.0000,8.3,-999,6.8,83.0,,-999.0000,30.9060,-999.0000,12.9
2022-05-22 04:45:00,2022-05-21 21:45:00,-999.0000,64.61,-999.00,6.6000,4.0889,-999.0000,7.6,-999,6.3,84.0,,-999.0000,30.9130,-999.0000,12.9
2022-05-22 05:00:00,2022-05-21 22:00:00,-999.0000,64.61,-999.00,6.2000,3.8652,-999.0000,7.1,-999,5.8,85.0,,-999.0000,30.9090,-999.0000,12.9
2022-05-22 05:15:00,2022-05-21 22:15:00,-999.0000,64.61,-999.00,5.9000,3.5708,-999.0000,6.5,-999,5.5,85.0,,-999.0000,30.9130,-999.0000,12.8
2022-05-22 05:30:00,2022-05-21 22:30:00,-999.0000,64.61,-999.00,5.7000,3.3745,-999.0000,6.2,-999,5.3,85.0,,-999.0000,30.9160,-999.0000,12.8
2022-05-22 05:45:00,2022-05-21 22:45:00,-999.0000,64.61,-999.00,5.3000,3.1474,-999.0000,5.7,-999,5.0,86.0,,-999.0000,30.9190,-999.0000,12.8
2022-05-22 06:00:00,2022-05-21 23:00:00,-999.0000,64.61,-999.00,5.1000,3.2760,-999.0000,5.1,-999,4.8,88.0,,-999.0000,30.9190,-999.0000,12.8
2022-05-22 06:15:00,2022-05-21 23:15:00,-999.0000,64.61,-999.00,5.0000,3.1775,-999.0000,5.0,-999,4.7,88.0,,-999.0000,30.9160,-999.0000,12.8
2022-05-22 06:30:00,2022-05-21 23:30:00,-999.0000,64.61,-999.00,4.9000,3.0789,-999.0000,4.6,-999,4.5,88.0,,-999.0000,30.9190,-999.0000,12.8
2022-05-22 06:45:00,2022-05-21 23:45:00,-999.0000,64.61,-999.00,4.8000,3.1401,-999.0000,4.3,-999,4.4,89.0,,-999.0000,30.9230,-999.0000,12.8
2022-05-22 07:00:00,2022-05-22 00:00:00,-999.0000,64.61,-999.00,4.6000,2.9428,-999.0000,3.9,-999,4.2,89.0,,-999.0000,30.9230,-999.0000,12.8
2022-05-22 07:15:00,2022-05-22 00:15:00,-999.0000,64.61,-999.00,4.5000,3.0020,-999.0000,3.7,-999,4.0,90.0,,-999.0000,30.9190,-999.0000,12.7
2022-05-22 07:30:00,2022-05-22 00:30:00,-999.0000,64.61,-999.00,4.4000,3.0593,-999.0000,3.6,-999,4.0,91.0,,-999.0000,30.9230,-999.0000,12.7
2022-05-22 07:45:00,2022-05-22 00:45:00,-999.0000,64.61,-999.00,4.3000,2.9604,-999.0000,3.4,-999,3.9,91.0,,-999.0000,30.9190,-999.0000,12.7
2022-05-22 08:00:00,2022-05-22 01:00:00,-999.0000,64.61,-999.00,4.1000,2.7625,-999.0000,3.0,-999,3.7,91.0,,-999.0000,30.9230,-999.0000,12.8
2022-05-22 08:15:00,2022-05-22 01:15:00,-999.0000,64.61,-999.00,4.0000,2.6636,-999.0000,3.0,-999,3.6,91.0,,-999.0000,30.9230,-999.0000,12.7
2022-05-22 08:30:00,2022-05-22 01:30:00,-999.0000,64.61,-999.00,3.8000,2.6196,-999.0000,2.8,-999,3.5,92.0,,-999.0000,30.9190,-999.0000,12.7
2022-05-22 08:45:00,2022-05-22 01:45:00,-999.0000,64.61,-999.00,3.7000,2.3668,-999.0000,2.7,-999,3.4,91.0,,-999.0000,30.9230,-999.0000,12.7
2022-05-22 09:00:00,2022-05-22 02:00:00,-999.0000,64.61,-999.00,3.6000,2.7244,-999.0000,2.5,-999,3.3,94.0,,-999.0000,30.9160,-999.0000,12.7
2022-05-22 09:15:00,2022-05-22 02:15:00,-999.0000,64.61,-999.00,3.6000,2.5737,-999.0000,2.5,-999,3.1,93.0,,-999.0000,30.9190,-999.0000,12.7
2022-05-22 09:30:00,2022-05-22 02:30:00,-999.0000,64.61,-999.00,3.4000,2.3754,-999.0000,2.5,-999,3.1,93.0,,-999.0000,30.9190,-999.0000,12.7
2022-05-22 09:45:00,2022-05-22 02:45:00,-999.0000,64.61,-999.00,3.4000,2.5258,-999.0000,2.3,-999,3.0,94.0,,-999.0000,30.9190,-999.0000,12.7
2022-05-22 10:00:00,2022-05-22 03:00:00,-999.0000,64.61,-999.00,3.3000,2.4265,-999.0000,2.1,-999,2.9,94.0,,-999.0000,30.9230,-999.0000,12.7
2022-05-22 10:15:00,2022-05-22 03:15:00,-999.0000,64.61,-999.00,3.2000,2.4761,-999.0000,2.0,-999,2.9,95.0,,-999.0000,30.9230,-999.0000,12.7
2022-05-22 10:30:00,2022-05-22 03:30:00,-999.0000,64.61,-999.00,3.2000,2.6235,-999.0000,2.0,-999,2.9,96.0,,-999.0000,30.9160,-999.0000,12.7
2022-05-22 10:45:00,2022-05-22 03:45:00,-999.0000,64.61,-999.00,3.2000,2.4761,-999.0000,1.8,-999,2.9,95.0,,-999.0000,30.9230,-999.0000,12.7
2022-05-22 11:00:00,2022-05-22 04:00:00,-999.0000,64.61,-999.00,3.1000,2.2280,-999.0000,1.8,-999,2.8,94.0,,-999.0000,30.9230,-999.0000,12.7
2022-05-22 11:15:00,2022-05-22 04:15:00,-999.0000,64.61,-999.00,3.0000,2.2773,-999.0000,1.6,-999,2.6,95.0,,-999.0000,30.9230,-999.0000,12.7
2022-05-22 11:30:00,2022-05-22 04:30:00,-999.0000,64.61,-999.00,2.9000,2.1778,-999.0000,1.6,-999,2.6,95.0,,-999.0000,30.9260,-999.0000,12.7
2022-05-22 11:45:00,2022-05-22 04:45:00,-999.0000,64.61,-999.00,2.9000,2.3249,-999.0000,1.4,-999,2.6,96.0,,-999.0000,30.9290,-999.0000,12.7
2022-05-22 12:00:00,2022-05-22 05:00:00,-999.0000,64.61,-999.00,2.8000,2.2254,-999.0000,1.4,-999,2.5,96.0,,-999.0000,30.9290,-999.0000,12.7
2022-05-22 12:15:00,2022-05-22 05:15:00,-999.0000,64.61,-999.00,2.7000,2.1259,-999.0000,1.4,-999,2.4,96.0,,-999.0000,30.9290,-999.0000,12.6
2022-05-22 12:30:00,2022-05-22 05:30:00,-999.0000,64.61,-999.00,2.7000,2.2713,-999.0000,1.4,-999,2.3,97.0,,-999.0000,30.9260,-999.0000,12.7
2022-05-22 12:45:00,2022-05-22 05:45:00,-999.0000,64.61,-999.00,2.7000,2.1259,-999.0000,1.3,-999,2.4,96.0,,-999.0000,30.9260,-999.0000,12.6
2022-05-22 13:00:00,2022-05-22 06:00:00,-999.0000,64.61,-999.00,2.7000,2.2713,-999.0000,1.1,-999,2.4,97.0,,-999.0000,30.9330,-999.0000,12.7
2022-05-22 13:15:00,2022-05-22 06:15:00,-999.0000,64.61,-999.00,2.7000,2.2713,-999.0000,1.3,-999,2.4,97.0,,-999.0000,30.9330,-999.0000,12.6
2022-05-22 13:30:00,2022-05-22 06:30:00,-999.0000,64.61,-999.00,2.7000,2.1259,-999.0000,1.3,-999,2.3,96.0,,-999.0000,30.9360,-999.0000,12.7
2022-05-22 13:45:00,2022-05-22 06:45:00,-999.0000,64.61,-999.00,2.7000,2.2713,-999.0000,1.3,-999,2.4,97.0,,-999.0000,30.9390,-999.0000,12.7
2022-05-22 14:00:00,2022-05-22 07:00:00,-999.0000,64.61,-999.00,2.7000,2.2713,-999.0000,1.3,-999,2.4,97.0,,-999.0000,30.9390,-999.0000,12.7
2022-05-22 14:15:00,2022-05-22 07:15:00,-999.0000,64.61,-999.00,2.7000,2.2713,-999.0000,1.3,-999,2.4,97.0,,-999.0000,30.9390,-999.0000,12.7
2022-05-22 14:30:00,2022-05-22 07:30:00,-999.0000,64.61,-999.00,2.8000,2.5153,-999.0000,1.4,-999,2.5,98.0,,-999.0000,30.9360,-999.0000,12.7
2022-05-22 14:45:00,2022-05-22 07:45:00,-999.0000,64.61,-999.00,2.9000,2.6151,-999.0000,1.3,-999,2.7,98.0,,-999.0000,30.9360,-999.0000,12.7
2022-05-22 15:00:00,2022-05-22 08:00:00,-999.0000,64.61,-999.00,3.2000,2.9144,-999.0000,1.4,-999,3.0,98.0,,-999.0000,30.9290,-999.0000,12.7
2022-05-22 15:15:00,2022-05-22 08:15:00,-999.0000,64.61,-999.00,3.7000,3.4132,-999.0000,1.8,-999,4.2,98.0,,-999.0000,30.9330,-999.0000,12.7
2022-05-22 15:30:00,2022-05-22 08:30:00,-999.0000,64.61,-999.00,4.6000,3.8678,-999.0000,2.7,-999,4.8,95.0,,-999.0000,30.9360,-999.0000,12.8
2022-05-22 15:45:00,2022-05-22 08:45:00,-999.0000,64.61,-999.00,5.3000,4.2595,-999.0000,3.4,-999,5.4,93.0,,-999.0000,30.9360,-999.0000,12.9
2022-05-22 16:00:00,2022-05-22 09:00:00,-999.0000,64.61,-999.00,6.3000,4.7802,-999.0000,4.1,-999,5.8,90.0,,-999.0000,30.9360,-999.0000,13.1
2022-05-22 16:15:00,2022-05-22 09:15:00,-999.0000,64.61,-999.00,8.2000,5.3093,-999.0000,5.3,-999,6.6,82.0,,-999.0000,30.9360,-999.0000,13.3
2022-05-22 16:30:00,2022-05-22 09:30:00,-999.0000,64.61,-999.00,8.3000,5.0517,-999.0000,7.9,-999,7.3,80.0,,-999.0000,30.9290,-999.0000,14.2
2022-05-22 16:45:00,2022-05-22 09:45:00,-999.0000,64.61,-999.00,9.3000,6.0260,-999.0000,11.5,-999,8.5,80.0,,-999.0000,30.9330,-999.0000,14.4
2022-05-22 17:00:00,2022-05-22 10:00:00,-999.0000,64.61,-999.00,10.5000,6.8254,-999.0000,15.2,-999,9.4,78.0,,-999.0000,30.9330,-999.0000,13.9
2022-05-22 17:15:00,2022-05-22 10:15:00,-999.0000,64.61,-999.00,11.6000,6.1043,-999.0000,18.5,-999,11.1,69.0,,-999.0000,30.9390,-999.0000,14.0
2022-05-22 17:30:00,2022-05-22 10:30:00,-999.0000,64.61,-999.00,12.8000,6.6046,-999.0000,21.3,-999,12.4,66.0,,-999.0000,30.9390,-999.0000,14.2
2022-05-22 17:45:00,2022-05-22 10:45:00,-999.0000,64.61,-999.00,13.1000,5.7467,-999.0000,23.8,-999,13.3,61.0,,-999.0000,30.9360,-999.0000,14.2
2022-05-22 18:00:00,2022-05-22 11:00:00,-999.0000,64.61,-999.00,14.6000,1.1428,-999.0000,25.7,-999,14.4,40.0,,-999.0000,30.9290,-999.0000,14.1
2022-05-22 18:15:00,2022-05-22 11:15:00,-999.0000,64.61,-999.00,15.8000,1.8654,-999.0000,27.6,-999,15.4,39.0,,-999.0000,30.9330,-999.0000,13.7
2022-05-22 18:30:00,2022-05-22 11:30:00,-999.0000,64.61,-999.00,15.6000,2.7269,-999.0000,29.0,-999,15.8,42.0,,-999.0000,30.9290,-999.0000,13.8
2022-05-22 18:45:00,2022-05-22 11:45:00,-999.0000,64.61,-999.00,16.5000,3.8739,-999.0000,29.6,-999,16.9,43.0,,-999.0000,30.9290,-999.0000,13.9
2022-05-22 19:00:00,2022-05-22 12:00:00,-999.0000,64.61,-999.00,16.9000,0.0890,-999.0000,30.1,-999,17.0,32.0,,-999.0000,30.9290,-999.0000,13.6
2022-05-22 19:15:00,2022-05-22 12:15:00,-999.0000,64.61,-999.00,17.3000,0.8656,-999.0000,30.3,-999,17.6,33.0,,-999.0000,30.9260,-999.0000,13.8
2022-05-22 19:30:00,2022-05-22 12:30:00,-999.0000,64.61,-999.00,16.7000,1.1552,-999.0000,29.4,-999,17.7,35.0,,-999.0000,30.9190,-999.0000,14.3
2022-05-22 19:45:00,2022-05-22 12:45:00,-999.0000,64.61,-999.00,17.1000,-0.1740,-999.0000,27.8,-999,18.0,31.0,,-999.0000,30.9130,-999.0000,13.7
2022-05-22 20:00:00,2022-05-22 13:00:00,-999.0000,64.61,-999.00,17.0000,1.4204,-999.0000,26.4,-999,18.1,35.0,,-999.0000,30.9090,-999.0000,14.1
2022-05-22 20:15:00,2022-05-22 13:15:00,-999.0000,64.61,-999.00,17.5000,0.1747,-999.0000,25.4,-999,19.2,31.0,,-999.0000,30.9030,-999.0000,13.6
2022-05-22 20:30:00,2022-05-22 13:30:00,-999.0000,64.61,-999.00,17.1000,0.2640,-999.0000,24.8,-999,19.6,32.0,,-999.0000,30.9060,-999.0000,14.2
2022-05-22 20:45:00,2022-05-22 13:45:00,-999.0000,64.61,-999.00,17.4000,0.5264,-999.0000,23.9,-999,18.9,32.0,,-999.0000,30.9090,-999.0000,14.2
2022-05-22 21:00:00,2022-05-22 14:00:00,-999.0000,64.61,-999.00,17.6000,0.7013,-999.0000,23.4,-999,18.7,32.0,,-999.0000,30.9160,-999.0000,14.2
2022-05-22 21:15:00,2022-05-22 14:15:00,-999.0000,64.61,-999.00,17.1000,0.2640,-999.0000,23.1,-999,18.3,32.0,,-999.0000,30.9090,-999.0000,13.8
2022-05-22 21:30:00,2022-05-22 14:30:00,-999.0000,64.61,-999.00,17.3000,0.8656,-999.0000,22.5,-999,18.2,33.0,,-999.0000,30.9060,-999.0000,13.9
2022-05-22 21:45:00,2022-05-22 14:45:00,-999.0000,64.61,-999.00,17.9000,1.3921,-999.0000,22.2,-999,18.7,33.0,,-999.0000,30.9060,-999.0000,13.9
2022-05-22 22:00:00,2022-05-22 15:00:00,-999.0000,64.61,-999.00,17.6000,3.1083,-999.0000,22.0,-999,18.7,38.0,,-999.0000,30.9060,-999.0000,13.9
2022-05-22 22:15:00,2022-05-22 15:15:00,-999.0000,64.61,-999.00,17.3000,3.9178,-999.0000,21.8,-999,18.9,41.0,,-999.0000,30.9060,-999.0000,13.8
2022-05-22 22:30:00,2022-05-22 15:30:00,-999.0000,64.61,-999.00,17.6000,4.1878,-999.0000,21.5,-999,20.5,41.0,,-999.0000,30.8930,-999.0000,13.9
2022-05-22 22:45:00,2022-05-22 15:45:00,-999.0000,64.61,-999.00,17.2000,4.5073,-999.0000,21.5,-999,19.3,43.0,,-999.0000,30.8990,-999.0000,14.1
2022-05-22 23:00:00,2022-05-22 16:00:00,-999.0000,64.61,-999.00,17.3000,4.9274,-999.0000,21.5,-999,18.3,44.0,,-999.0000,30.8960,-999.0000,14.2
2022-05-22 23:15:00,2022-05-22 16:15:00,-999.0000,64.61,-999.00,17.4000,5.0181,-999.0000,21.3,-999,18.1,44.0,,-999.0000,30.8930,-999.0000,13.8
2022-05-22 23:30:00,2022-05-22 16:30:00,-999.0000,64.61,-999.00,16.9000,4.8865,-999.0000,21.0,-999,17.6,45.0,,-999.0000,30.8930,-999.0000,14.0
2022-05-22 23:45:00,2022-05-22 16:45:00,-999.0000,64.61,-999.00,16.7000,4.7046,-999.0000,20.6,-999,17.3,45.0,,-999.0000,30.8930,-999.0000,14.0
2022-05-23 00:00:00,2022-05-22 17:00:00,-999.0000,64.61,-999.00,16.3000,4.9635,-999.0000,19.9,-999,16.8,47.0,,-999.0000,30.8930,-999.0000,14.1
2022-05-23 00:15:00,2022-05-22 17:15:00,-999.0000,64.61,-999.00,16.2000,4.8720,-999.0000,19.4,-999,16.6,47.0,,-999.0000,30.8890,-999.0000,14.0
2022-05-23 00:30:00,2022-05-22 17:30:00,-999.0000,64.61,-999.00,16.5000,5.7470,-999.0000,18.8,-999,16.7,49.0,,-999.0000,30.8890,-999.0000,14.0
2022-05-23 00:45:00,2022-05-22 17:45:00,-999.0000,64.61,-999.00,16.4000,5.6552,-999.0000,18.5,-999,16.5,49.0,,-999.0000,30.8830,-999.0000,14.5
2022-05-23 01:00:00,2022-05-22 18:00:00,-999.0000,64.61,-999.00,16.1000,5.6709,-999.0000,17.8,-999,16.3,50.0,,-999.0000,30.8830,-999.0000,14.2
2022-05-23 01:15:00,2022-05-22 18:15:00,-999.0000,64.61,-999.00,15.9000,5.1957,-999.0000,17.6,-999,16.0,49.0,,-999.0000,30.8830,-999.0000,14.1
2022-05-23 01:30:00,2022-05-22 18:30:00,-999.0000,64.61,-999.00,15.6000,5.4955,-999.0000,17.3,-999,15.7,51.0,,-999.0000,30.8830,-999.0000,13.9
2022-05-23 01:45:00,2022-05-22 18:45:00,-999.0000,64.61,-999.00,15.4000,5.8659,-999.0000,16.9,-999,15.4,53.0,,-999.0000,30.8790,-999.0000,13.7
2022-05-23 02:00:00,2022-05-22 19:00:00,-999.0000,64.61,-999.00,15.1000,7.8718,-999.0000,16.6,-999,15.2,62.0,,-999.0000,30.8830,-999.0000,13.8
2022-05-23 02:15:00,2022-05-22 19:15:00,-999.0000,64.61,-999.00,14.5000,7.0672,-999.0000,16.2,-999,14.8,61.0,,-999.0000,30.8830,-999.0000,14.2
2022-05-23 02:30:00,2022-05-22 19:30:00,-999.0000,64.61,-999.00,14.1000,6.2055,-999.0000,15.9,-999,14.3,59.0,,-999.0000,30.8790,-999.0000,13.8
2022-05-23 02:45:00,2022-05-22 19:45:00,-999.0000,64.61,-999.00,14.0000,7.9680,-999.0000,15.5,-999,14.1,67.0,,-999.0000,30.8760,-999.0000,14.3
2022-05-23 03:00:00,2022-05-22 20:00:00,-999.0000,64.61,-999.00,13.1000,7.5401,-999.0000,15.0,-999,13.2,69.0,,-999.0000,30.8830,-999.0000,13.7
2022-05-23 03:15:00,2022-05-22 20:15:00,-999.0000,64.61,-999.00,11.6000,6.3130,-999.0000,14.5,-999,11.9,70.0,,-999.0000,30.8790,-999.0000,13.0
2022-05-23 03:30:00,2022-05-22 20:30:00,-999.0000,64.61,-999.00,10.6000,6.1570,-999.0000,13.7,-999,10.9,74.0,,-999.0000,30.8760,-999.0000,12.9
2022-05-23 03:45:00,2022-05-22 20:45:00,-999.0000,64.61,-999.00,10.0000,5.9633,-999.0000,12.9,-999,10.2,76.0,,-999.0000,30.8790,-999.0000,12.9
2022-05-23 04:00:00,2022-05-22 21:00:00,-999.0000,64.61,-999.00,9.6000,5.7647,-999.0000,12.2,-999,9.7,77.0,,-999.0000,30.8790,-999.0000,12.9
2022-05-23 04:15:00,2022-05-22 21:15:00,-999.0000,64.61,-999.00,9.3000,5.6599,-999.0000,11.3,-999,9.3,78.0,,-999.0000,30.8860,-999.0000,12.8
2022-05-23 04:30:00,2022-05-22 21:30:00,-999.0000,64.61,-999.00,9.0000,5.3685,-999.0000,10.8,-999,9.0,78.0,,-999.0000,30.8930,-999.0000,12.8
2022-05-23 04:45:00,2022-05-22 21:45:00,-999.0000,64.61,-999.00,8.7000,5.2603,-999.0000,10.1,-999,8.7,79.0,,-999.0000,30.8930,-999.0000,12.8
2022-05-23 05:00:00,2022-05-22 22:00:00,-999.0000,64.61,-999.00,8.4000,5.1492,-999.0000,9.5,-999,8.3,80.0,,-999.0000,30.8960,-999.0000,12.8
2022-05-23 05:15:00,2022-05-22 22:15:00,-999.0000,64.61,-999.00,8.2000,5.1328,-999.0000,9.0,-999,8.2,81.0,,-999.0000,30.8860,-999.0000,12.8
2022-05-23 05:30:00,2022-05-22 22:30:00,-999.0000,64.61,-999.00,8.1000,5.2116,-999.0000,8.8,-999,8.0,82.0,,-999.0000,30.8860,-999.0000,12.8
2022-05-23 05:45:00,2022-05-22 22:45:00,-999.0000,64.61,-999.00,8.0000,5.1139,-999.0000,8.3,-999,7.9,82.0,,-999.0000,30.8890,-999.0000,12.8
2022-05-23 06:00:00,2022-05-22 23:00:00,-999.0000,64.61,-999.00,8.0000,4.9376,-999.0000,7.9,-999,7.8,81.0,,-999.0000,30.8830,-999.0000,12.8
2022-05-23 06:15:00,2022-05-22 23:15:00,-999.0000,64.61,-999.00,7.8000,5.0926,-999.0000,7.8,-999,7.7,83.0,,-999.0000,30.8860,-999.0000,12.8
2022-05-23 06:30:00,2022-05-22 23:30:00,-999.0000,64.61,-999.00,7.7000,4.9947,-999.0000,7.6,-999,7.6,83.0,,-999.0000,30.8860,-999.0000,12.8
2022-05-23 06:45:00,2022-05-22 23:45:00,-999.0000,64.61,-999.00,7.7000,5.3372,-999.0000,7.4,-999,7.5,85.0,,-999.0000,30.8890,-999.0000,12.8
2022-05-23 07:00:00,2022-05-23 00:00:00,-999.0000,64.61,-999.00,7.6000,5.2390,-999.0000,7.1,-999,7.5,85.0,,-999.0000,30.8890,-999.0000,12.8
2022-05-23 07:15:00,2022-05-23 00:15:00,-999.0000,64.61,-999.00,7.4000,5.0428,-999.0000,7.1,-999,7.3,85.0,,-999.0000,30.8890,-999.0000,12.7
2022-05-23 07:30:00,2022-05-23 00:30:00,-999.0000,64.61,-999.00,7.3000,5.1127,-999.0000,6.9,-999,7.2,86.0,,-999.0000,30.8860,-999.0000,12.7
2022-05-23 07:45:00,2022-05-23 00:45:00,-999.0000,64.61,-999.00,7.1000,4.9162,-999.0000,6.7,-999,7.1,86.0,,-999.0000,30.8890,-999.0000,12.7
2022-05-23 08:00:00,2022-05-23 01:00:00,-999.0000,64.61,-999.00,7.1000,5.0822,-999.0000,6.5,-999,7.0,87.0,,-999.0000,30.8890,-999.0000,12.7
2022-05-23 08:15:00,2022-05-23 01:15:00,-999.0000,64.61,-999.00,6.9000,5.0495,-999.0000,6.5,-999,6.8,88.0,,-999.0000,30.8860,-999.0000,12.7
2022-05-23 08:30:00,2022-05-23 01:30:00,-999.0000,64.61,-999.00,6.8000,4.9510,-999.0000,6.5,-999,6.6,88.0,,-999.0000,30.8890,-999.0000,12.7
2022-05-23 08:45:00,2022-05-23 01:45:00,-999.0000,64.61,-999.00,6.7000,4.8525,-999.0000,6.2,-999,6.6,88.0,,-999.0000,30.8890,-999.0000,12.7
2022-05-23 09:00:00,2022-05-23 02:00:00,-999.0000,64.61,-999.00,6.7000,5.0147,-999.0000,6.0,-999,6.7,89.0,,-999.0000,30.8890,-999.0000,12.7
2022-05-23 09:15:00,2022-05-23 02:15:00,-999.0000,64.61,-999.00,6.8000,5.1133,-999.0000,6.0,-999,6.7,89.0,,-999.0000,30.8860,-999.0000,12.7
2022-05-23 09:30:00,2022-05-23 02:30:00,-999.0000,64.61,-999.00,6.8000,5.1133,-999.0000,6.0,-999,6.7,89.0,,-999.0000,30.8860,-999.0000,12.7
2022-05-23 09:45:00,2022-05-23 02:45:00,-999.0000,64.61,-999.00,6.8000,4.9510,-999.0000,6.0,-999,6.7,88.0,,-999.0000,30.8960,-999.0000,12.7
2022-05-23 10:00:00,2022-05-23 03:00:00,-999.0000,64.61,-999.00,6.8000,5.1133,-999.0000,5.8,-999,6.7,89.0,,-999.0000,30.8930,-999.0000,12.7
2022-05-23 10:15:00,2022-05-23 03:15:00,-999.0000,64.61,-999.00,6.7000,5.1753,-999.0000,5.8,-999,6.6,90.0,,-999.0000,30.8930,-999.0000,12.7
2022-05-23 10:30:00,2022-05-23 03:30:00,-999.0000,64.61,-999.00,6.7000,5.3343,-999.0000,5.8,-999,6.6,91.0,,-999.0000,30.8960,-999.0000,12.7
2022-05-23 10:45:00,2022-05-23 03:45:00,-999.0000,64.61,-999.00,6.7000,5.3343,-999.0000,6.0,-999,6.6,91.0,,-999.0000,30.8890,-999.0000,12.7
2022-05-23 11:00:00,2022-05-23 04:00:00,-999.0000,64.61,-999.00,6.7000,5.4918,-999.0000,5.8,-999,6.6,92.0,,-999.0000,30.8890,-999.0000,12.7
2022-05-23 11:15:00,2022-05-23 04:15:00,-999.0000,64.61,-999.00,6.6000,5.5486,-999.0000,5.8,-999,6.6,93.0,,-999.0000,30.8890,-999.0000,12.7
2022-05-23 11:30:00,2022-05-23 04:30:00,-999.0000,64.61,-999.00,6.5000,5.6038,-999.0000,5.8,-999,6.4,94.0,,-999.0000,30.8830,-999.0000,12.7
2022-05-23 11:45:00,2022-05-23 04:45:00,-999.0000,64.61,-999.00,6.4000,5.5045,-999.0000,5.8,-999,6.3,94.0,,-999.0000,30.8620,-999.0000,12.7
2022-05-23 12:00:00,2022-05-23 05:00:00,-999.0000,64.61,-999.00,6.4000,5.5045,-999.0000,5.7,-999,6.4,94.0,,-999.0000,30.8660,-999.0000,12.7
2022-05-23 12:15:00,2022-05-23 05:15:00,-999.0000,64.61,-999.00,6.6000,5.7030,-999.0000,5.7,-999,6.4,94.0,,-999.0000,30.8790,-999.0000,12.7
2022-05-23 12:30:00,2022-05-23 05:30:00,-999.0000,64.61,-999.00,6.6000,5.5486,-999.0000,5.7,-999,6.4,93.0,,-999.0000,30.8730,-999.0000,12.7
2022-05-23 12:45:00,2022-05-23 05:45:00,-999.0000,64.61,-999.00,6.4000,5.5045,-999.0000,5.5,-999,6.3,94.0,,-999.0000,30.8730,-999.0000,12.7
2022-05-23 13:00:00,2022-05-23 06:00:00,-999.0000,64.61,-999.00,6.5000,5.4495,-999.0000,5.5,-999,6.3,93.0,,-999.0000,30.8690,-999.0000,12.7
2022-05-23 13:15:00,2022-05-23 06:15:00,-999.0000,64.61,-999.00,6.6000,5.3928,-999.0000,5.7,-999,6.4,92.0,,-999.0000,30.8730,-999.0000,12.6
2022-05-23 13:30:00,2022-05-23 06:30:00,-999.0000,64.61,-999.00,6.7000,5.4918,-999.0000,5.7,-999,6.5,92.0,,-999.0000,30.8760,-999.0000,12.7
2022-05-23 13:45:00,2022-05-23 06:45:00,-999.0000,64.61,-999.00,6.9000,5.6899,-999.0000,5.8,-999,6.7,92.0,,-999.0000,30.8760,-999.0000,12.7
2022-05-23 14:00:00,2022-05-23 07:00:00,-999.0000,64.61,-999.00,6.9000,5.5321,-999.0000,5.8,-999,6.9,91.0,,-999.0000,30.8730,-999.0000,12.7
2022-05-23 14:15:00,2022-05-23 07:15:00,-999.0000,64.61,-999.00,7.1000,5.5704,-999.0000,6.2,-999,7.1,90.0,,-999.0000,30.8730,-999.0000,12.8
2022-05-23 14:30:00,2022-05-23 07:30:00,-999.0000,64.61,-999.00,7.5000,5.9655,-999.0000,6.5,-999,7.5,90.0,,-999.0000,30.8690,-999.0000,12.9
2022-05-23 14:45:00,2022-05-23 07:45:00,-999.0000,64.61,-999.00,7.9000,6.3606,-999.0000,6.7,-999,7.9,90.0,,-999.0000,30.8730,-999.0000,12.9
2022-05-23 15:00:00,2022-05-23 08:00:00,-999.0000,64.61,-999.00,8.4000,6.1935,-999.0000,7.2,-999,8.3,86.0,,-999.0000,30.8690,-999.0000,13.0
2022-05-23 15:15:00,2022-05-23 08:15:00,-999.0000,64.61,-999.00,8.9000,6.1689,-999.0000,7.8,-999,8.9,83.0,,-999.0000,30.8760,-999.0000,13.1
2022-05-23 15:30:00,2022-05-23 08:30:00,-999.0000,64.61,-999.00,9.3000,6.5603,-999.0000,8.3,-999,9.2,83.0,,-999.0000,30.8690,-999.0000,13.2
2022-05-23 15:45:00,2022-05-23 08:45:00,-999.0000,64.61,-999.00,9.8000,6.5131,-999.0000,8.8,-999,9.7,80.0,,-999.0000,30.8730,-999.0000,13.5
2022-05-23 16:00:00,2022-05-23 09:00:00,-999.0000,64.61,-999.00,10.1000,6.4369,-999.0000,9.4,-999,10.1,78.0,,-999.0000,30.8760,-999.0000,14.5
2022-05-23 16:15:00,2022-05-23 09:15:00,-999.0000,64.61,-999.00,10.3000,5.8675,-999.0000,9.9,-999,10.3,74.0,,-999.0000,30.8830,-999.0000,14.1
2022-05-23 16:30:00,2022-05-23 09:30:00,-999.0000,64.61,-999.00,10.6000,5.5585,-999.0000,10.6,-999,10.7,71.0,,-999.0000,30.8830,-999.0000,14.6
2022-05-23 16:45:00,2022-05-23 09:45:00,-999.0000,64.61,-999.00,10.7000,5.6546,-999.0000,11.1,-999,10.9,71.0,,-999.0000,30.8830,-999.0000,14.1
2022-05-23 17:00:00,2022-05-23 10:00:00,-999.0000,64.61,-999.00,10.8000,5.5459,-999.0000,11.5,-999,10.9,70.0,,-999.0000,30.8760,-999.0000,14.6
2022-05-23 17:15:00,2022-05-23 10:15:00,-999.0000,64.61,-999.00,12.3000,5.2256,-999.0000,12.2,-999,11.8,62.0,,-999.0000,30.8730,-999.0000,14.0
2022-05-23 17:30:00,2022-05-23 10:30:00,-999.0000,64.61,-999.00,12.3000,6.1285,-999.0000,14.3,-999,12.5,66.0,,-999.0000,30.8730,-999.0000,14.1
2022-05-23 17:45:00,2022-05-23 10:45:00,-999.0000,64.61,-999.00,12.2000,2.0763,-999.0000,15.3,-999,12.4,50.0,,-999.0000,30.8660,-999.0000,14.3
2022-05-23 18:00:00,2022-05-23 11:00:00,-999.0000,64.61,-999.00,12.3000,0.6985,-999.0000,15.9,-999,12.7,45.0,,-999.0000,30.8620,-999.0000,14.4
2022-05-23 18:15:00,2022-05-23 11:15:00,-999.0000,64.61,-999.00,12.4000,2.5392,-999.0000,16.4,-999,12.8,51.0,,-999.0000,30.8620,-999.0000,13.9
2022-05-23 18:30:00,2022-05-23 11:30:00,-999.0000,64.61,-999.00,13.0000,2.8140,-999.0000,16.2,-999,13.2,50.0,,-999.0000,30.8660,-999.0000,14.0
2022-05-23 18:45:00,2022-05-23 11:45:00,-999.0000,64.61,-999.00,14.1000,2.3381,-999.0000,16.4,-999,14.2,45.0,,-999.0000,30.8690,-999.0000,13.8
2022-05-23 19:00:00,2022-05-23 12:00:00,-999.0000,64.61,-999.00,12.8000,1.7609,-999.0000,16.9,-999,13.7,47.0,,-999.0000,30.8730,-999.0000,14.0
2022-05-23 19:15:00,2022-05-23 12:15:00,-999.0000,64.61,-999.00,12.4000,1.0950,-999.0000,16.7,-999,13.1,46.0,,-999.0000,30.8760,-999.0000,14.0
2022-05-23 19:30:00,2022-05-23 12:30:00,-999.0000,64.61,-999.00,12.3000,2.4468,-999.0000,16.2,-999,12.9,51.0,,-999.0000,30.8760,-999.0000,14.3
2022-05-23 19:45:00,2022-05-23 12:45:00,-999.0000,64.61,-999.00,12.7000,1.3690,-999.0000,15.7,-999,13.4,46.0,,-999.0000,30.8790,-999.0000,13.8
2022-05-23 20:00:00,2022-05-23 13:00:00,-999.0000,64.61,-999.00,12.2000,4.1759,-999.0000,15.3,-999,13.0,58.0,,-999.0000,30.8790,-999.0000,14.0
2022-05-23 20:15:00,2022-05-23 13:15:00,-999.0000,64.61,-999.00,12.1000,4.8031,-999.0000,15.2,-999,12.7,61.0,,-999.0000,30.8830,-999.0000,14.0
2022-05-23 20:30:00,2022-05-23 13:30:00,-999.0000,64.61,-999.00,12.0000,4.9420,-999.0000,14.8,-999,12.7,62.0,,-999.0000,30.8760,-999.0000,14.4
2022-05-23 20:45:00,2022-05-23 13:45:00,-999.0000,64.61,-999.00,12.2000,4.8975,-999.0000,14.6,-999,13.1,61.0,,-999.0000,30.8760,-999.0000,13.8
2022-05-23 21:00:00,2022-05-23 14:00:00,-999.0000,64.61,-999.00,12.7000,5.1314,-999.0000,14.8,-999,13.4,60.0,,-999.0000,30.8760,-999.0000,14.0
2022-05-23 21:15:00,2022-05-23 14:15:00,-999.0000,64.61,-999.00,13.6000,4.9840,-999.0000,15.2,-999,14.4,56.0,,-999.0000,30.8760,-999.0000,13.8
2022-05-23 21:30:00,2022-05-23 14:30:00,-999.0000,64.61,-999.00,13.1000,4.7705,-999.0000,15.7,-999,14.4,57.0,,-999.0000,30.8730,-999.0000,14.0
2022-05-23 21:45:00,2022-05-23 14:45:00,-999.0000,64.61,-999.00,13.2000,5.1139,-999.0000,15.9,-999,14.1,58.0,,-999.0000,30.8660,-999.0000,14.2
2022-05-23 22:00:00,2022-05-23 15:00:00,-999.0000,64.61,-999.00,13.8000,5.4257,-999.0000,15.9,-999,14.5,57.0,,-999.0000,30.8660,-999.0000,13.8
2022-05-23 22:15:00,2022-05-23 15:15:00,-999.0000,64.61,-999.00,13.2000,5.3599,-999.0000,16.0,-999,14.6,59.0,,-999.0000,30.8620,-999.0000,14.0
2022-05-23 22:30:00,2022-05-23 15:30:00,-999.0000,64.61,-999.00,13.7000,5.8297,-999.0000,15.9,-999,15.4,59.0,,-999.0000,30.8590,-999.0000,14.2
2022-05-23 22:45:00,2022-05-23 15:45:00,-999.0000,64.61,-999.00,13.1000,5.7467,-999.0000,16.0,-999,15.2,61.0,,-999.0000,30.8560,-999.0000,13.8
2022-05-23 23:00:00,2022-05-23 16:00:00,-999.0000,64.61,-999.00,13.4000,5.7905,-999.0000,16.4,-999,14.4,60.0,,-999.0000,30.8560,-999.0000,14.0
2022-05-23 23:15:00,2022-05-23 16:15:00,-999.0000,64.61,-999.00,13.3000,5.9353,-999.0000,16.4,-999,14.0,61.0,,-999.0000,30.8590,-999.0000,13.9
2022-05-23 23:30:00,2022-05-23 16:30:00,-999.0000,64.61,-999.00,12.7000,5.8349,-999.0000,16.2,-999,13.4,63.0,,-999.0000,30.8590,-999.0000,14.4
2022-05-23 23:45:00,2022-05-23 16:45:00,-999.0000,64.61,-999.00,12.7000,6.0628,-999.0000,15.5,-999,13.0,64.0,,-999.0000,30.8590,-999.0000,14.0
2022-05-24 00:00:00,2022-05-23 17:00:00,-999.0000,64.61,-999.00,12.7000,6.0628,-999.0000,15.2,-999,13.1,64.0,,-999.0000,30.8560,-999.0000,14.3
2022-05-24 00:15:00,2022-05-23 17:15:00,-999.0000,64.61,-999.00,12.7000,5.3693,-999.0000,14.8,-999,13.0,61.0,,-999.0000,30.8560,-999.0000,14.0
2022-05-24 00:30:00,2022-05-23 17:30:00,-999.0000,64.61,-999.00,12.6000,5.2749,-999.0000,14.5,-999,12.8,61.0,,-999.0000,30.8520,-999.0000,13.8
2022-05-24 00:45:00,2022-05-23 17:45:00,-999.0000,64.61,-999.00,12.3000,6.5619,-999.0000,14.1,-999,12.7,68.0,,-999.0000,30.8460,-999.0000,14.5
2022-05-24 01:00:00,2022-05-23 18:00:00,-999.0000,64.61,-999.00,11.8000,6.5048,-999.0000,13.7,-999,12.2,70.0,,-999.0000,30.8420,-999.0000,14.2
2022-05-24 01:15:00,2022-05-23 18:15:00,-999.0000,64.61,-999.00,11.4000,6.3270,-999.0000,13.4,-999,11.7,71.0,,-999.0000,30.8460,-999.0000,13.8
2022-05-24 01:30:00,2022-05-23 18:30:00,-999.0000,64.61,-999.00,11.5000,6.6264,-999.0000,13.0,-999,11.7,72.0,,-999.0000,30.8390,-999.0000,14.2
2022-05-24 01:45:00,2022-05-23 18:45:00,-999.0000,64.61,-999.00,11.5000,6.6264,-999.0000,12.5,-999,11.6,72.0,,-999.0000,30.8320,-999.0000,14.6
2022-05-24 02:00:00,2022-05-23 19:00:00,-999.0000,64.61,-999.00,11.5000,6.8273,-999.0000,12.3,-999,11.6,73.0,,-999.0000,30.8360,-999.0000,14.6
2022-05-24 02:15:00,2022-05-23 19:15:00,-999.0000,64.61,-999.00,11.3000,7.2220,-999.0000,12.2,-999,11.4,76.0,,-999.0000,30.8360,-999.0000,14.0
2022-05-24 02:30:00,2022-05-23 19:30:00,-999.0000,64.61,-999.00,11.0000,7.1224,-999.0000,11.8,-999,11.0,77.0,,-999.0000,30.8320,-999.0000,14.4
2022-05-24 02:45:00,2022-05-23 19:45:00,-999.0000,64.61,-999.00,10.7000,7.2058,-999.0000,11.6,-999,10.7,79.0,,-999.0000,30.8290,-999.0000,14.2
2022-05-24 03:00:00,2022-05-23 20:00:00,-999.0000,64.61,-999.00,10.5000,7.1950,-999.0000,11.1,-999,10.4,80.0,,-999.0000,30.8290,-999.0000,14.2
2022-05-24 03:15:00,2022-05-23 20:15:00,-999.0000,64.61,-999.00,10.2000,7.2634,-999.0000,10.9,-999,10.2,82.0,,-999.0000,30.8290,-999.0000,13.0
2022-05-24 03:30:00,2022-05-23 20:30:00,-999.0000,64.61,-999.00,10.1000,7.3430,-999.0000,10.4,-999,10.0,83.0,,-999.0000,30.8260,-999.0000,13.0
2022-05-24 03:45:00,2022-05-23 20:45:00,-999.0000,64.61,-999.00,9.8000,7.2245,-999.0000,10.2,-999,9.8,84.0,,-999.0000,30.8390,-999.0000,12.9
2022-05-24 04:00:00,2022-05-23 21:00:00,-999.0000,64.61,-999.00,9.4000,7.1760,-999.0000,9.7,-999,9.5,86.0,,-999.0000,30.8390,-999.0000,12.9
2022-05-24 04:15:00,2022-05-23 21:15:00,-999.0000,64.61,-999.00,9.1000,7.0500,-999.0000,9.5,-999,9.2,87.0,,-999.0000,30.8420,-999.0000,12.9
2022-05-24 04:30:00,2022-05-23 21:30:00,-999.0000,64.61,-999.00,8.9000,7.1850,-999.0000,9.4,-999,8.9,89.0,,-999.0000,30.8460,-999.0000,12.8
2022-05-24 04:45:00,2022-05-23 21:45:00,-999.0000,64.61,-999.00,8.5000,6.9533,-999.0000,9.0,-999,8.6,90.0,,-999.0000,30.8420,-999.0000,12.8
2022-05-24 05:00:00,2022-05-23 22:00:00,-999.0000,64.61,-999.00,8.3000,6.9168,-999.0000,8.6,-999,8.3,91.0,,-999.0000,30.8360,-999.0000,12.8
2022-05-24 05:15:00,2022-05-23 22:15:00,-999.0000,64.61,-999.00,8.2000,6.9773,-999.0000,8.3,-999,8.1,92.0,,-999.0000,30.8360,-999.0000,12.8
2022-05-24 05:30:00,2022-05-23 22:30:00,-999.0000,64.61,-999.00,8.1000,6.8783,-999.0000,8.3,-999,8.1,92.0,,-999.0000,30.8360,-999.0000,12.8
2022-05-24 05:45:00,2022-05-23 22:45:00,-999.0000,64.61,-999.00,7.9000,6.8377,-999.0000,7.9,-999,8.0,93.0,,-999.0000,30.8290,-999.0000,12.8
2022-05-24 06:00:00,2022-05-23 23:00:00,-999.0000,64.61,-999.00,7.9000,6.8377,-999.0000,7.8,-999,8.0,93.0,,-999.0000,30.8290,-999.0000,12.8
2022-05-24 06:15:00,2022-05-23 23:15:00,-999.0000,64.61,-999.00,7.9000,6.8377,-999.0000,7.6,-999,7.9,93.0,,-999.0000,30.8360,-999.0000,12.8
2022-05-24 06:30:00,2022-05-23 23:30:00,-999.0000,64.61,-999.00,7.9000,6.6802,-999.0000,7.6,-999,7.9,92.0,,-999.0000,30.8320,-999.0000,12.8
2022-05-24 06:45:00,2022-05-23 23:45:00,-999.0000,64.61,-999.00,7.9000,6.8377,-999.0000,7.4,-999,7.8,93.0,,-999.0000,30.8320,-999.0000,12.8
2022-05-24 07:00:00,2022-05-24 00:00:00,-999.0000,64.61,-999.00,7.9000,6.8377,-999.0000,7.2,-999,7.8,93.0,,-999.0000,30.8290,-999.0000,12.8
2022-05-24 07:15:00,2022-05-24 00:15:00,-999.0000,64.61,-999.00,7.9000,6.8377,-999.0000,7.4,-999,7.7,93.0,,-999.0000,30.8320,-999.0000,12.7
2022-05-24 07:30:00,2022-05-24 00:30:00,-999.0000,64.61,-999.00,7.8000,6.8944,-999.0000,7.4,-999,7.7,94.0,,-999.0000,30.8360,-999.0000,12.7
2022-05-24 07:45:00,2022-05-24 00:45:00,-999.0000,64.61,-999.00,7.7000,6.9494,-999.0000,7.4,-999,7.6,95.0,,-999.0000,30.8320,-999.0000,12.7
2022-05-24 08:00:00,2022-05-24 01:00:00,-999.0000,64.61,-999.00,7.7000,6.7951,-999.0000,7.1,-999,7.6,94.0,,-999.0000,30.8260,-999.0000,12.7
2022-05-24 08:15:00,2022-05-24 01:15:00,-999.0000,64.61,-999.00,7.7000,6.9494,-999.0000,7.1,-999,7.6,95.0,,-999.0000,30.8290,-999.0000,12.7
2022-05-24 08:30:00,2022-05-24 01:30:00,-999.0000,64.61,-999.00,7.7000,6.7951,-999.0000,7.1,-999,7.6,94.0,,-999.0000,30.8220,-999.0000,12.7
2022-05-24 08:45:00,2022-05-24 01:45:00,-999.0000,64.61,-999.00,7.7000,6.7951,-999.0000,6.9,-999,7.5,94.0,,-999.0000,30.8290,-999.0000,12.7
2022-05-24 09:00:00,2022-05-24 02:00:00,-999.0000,64.61,-999.00,7.6000,6.8500,-999.0000,6.9,-999,7.4,95.0,,-999.0000,30.8260,-999.0000,12.7
2022-05-24 09:15:00,2022-05-24 02:15:00,-999.0000,64.61,-999.00,7.5000,6.4411,-999.0000,6.9,-999,7.2,93.0,,-999.0000,30.8190,-999.0000,12.7
2022-05-24 09:30:00,2022-05-24 02:30:00,-999.0000,64.61,-999.00,7.3000,5.9278,-999.0000,6.9,-999,7.0,91.0,,-999.0000,30.8220,-999.0000,12.7
2022-05-24 09:45:00,2022-05-24 02:45:00,-999.0000,64.61,-999.00,7.2000,5.8289,-999.0000,6.7,-999,6.9,91.0,,-999.0000,30.8190,-999.0000,12.7
2022-05-24 10:00:00,2022-05-24 03:00:00,-999.0000,64.61,-999.00,7.1000,5.5704,-999.0000,6.5,-999,6.8,90.0,,-999.0000,30.8160,-999.0000,12.7
2022-05-24 10:15:00,2022-05-24 03:15:00,-999.0000,64.61,-999.00,6.7000,5.0147,-999.0000,6.4,-999,6.5,89.0,,-999.0000,30.8120,-999.0000,12.7
2022-05-24 10:30:00,2022-05-24 03:30:00,-999.0000,64.61,-999.00,6.4000,4.8789,-999.0000,6.4,-999,6.3,90.0,,-999.0000,30.8020,-999.0000,12.7
2022-05-24 10:45:00,2022-05-24 03:45:00,-999.0000,64.61,-999.00,6.2000,4.8398,-999.0000,6.0,-999,6.0,91.0,,-999.0000,30.8060,-999.0000,12.7
2022-05-24 11:00:00,2022-05-24 04:00:00,-999.0000,64.61,-999.00,5.8000,4.6005,-999.0000,5.8,-999,5.7,92.0,,-999.0000,30.8060,-999.0000,12.7
2022-05-24 11:15:00,2022-05-24 04:15:00,-999.0000,64.61,-999.00,5.5000,4.1474,-999.0000,5.7,-999,5.4,91.0,,-999.0000,30.8060,-999.0000,12.7
2022-05-24 11:30:00,2022-05-24 04:30:00,-999.0000,64.61,-999.00,5.3000,4.1053,-999.0000,5.5,-999,5.2,92.0,,-999.0000,30.8020,-999.0000,12.7
2022-05-24 11:45:00,2022-05-24 04:45:00,-999.0000,64.61,-999.00,5.1000,4.0612,-999.0000,5.1,-999,5.0,93.0,,-999.0000,30.7920,-999.0000,12.7
2022-05-24 12:00:00,2022-05-24 05:00:00,-999.0000,64.61,-999.00,5.0000,4.1145,-999.0000,4.8,-999,4.8,94.0,,-999.0000,30.7990,-999.0000,12.7
2022-05-24 12:15:00,2022-05-24 05:15:00,-999.0000,64.61,-999.00,4.9000,4.0152,-999.0000,4.4,-999,4.7,94.0,,-999.0000,30.7990,-999.0000,12.7
2022-05-24 12:30:00,2022-05-24 05:30:00,-999.0000,64.61,-999.00,4.9000,3.8629,-999.0000,4.4,-999,4.6,93.0,,-999.0000,30.8020,-999.0000,12.6
2022-05-24 12:45:00,2022-05-24 05:45:00,-999.0000,64.61,-999.00,4.8000,4.0667,-999.0000,4.1,-999,4.6,95.0,,-999.0000,30.8060,-999.0000,12.7
2022-05-24 13:00:00,2022-05-24 06:00:00,-999.0000,64.61,-999.00,5.0000,4.1145,-999.0000,4.1,-999,4.7,94.0,,-999.0000,30.8020,-999.0000,12.7
2022-05-24 13:15:00,2022-05-24 06:15:00,-999.0000,64.61,-999.00,5.1000,4.0612,-999.0000,4.1,-999,4.9,93.0,,-999.0000,30.7990,-999.0000,12.7
2022-05-24 13:30:00,2022-05-24 06:30:00,-999.0000,64.61,-999.00,5.2000,4.3130,-999.0000,4.1,-999,5.1,94.0,,-999.0000,30.7860,-999.0000,12.7
2022-05-24 13:45:00,2022-05-24 06:45:00,-999.0000,64.61,-999.00,5.5000,4.6109,-999.0000,4.1,-999,5.3,94.0,,-999.0000,30.7790,-999.0000,12.7
2022-05-24 14:00:00,2022-05-24 07:00:00,-999.0000,64.61,-999.00,5.7000,4.6562,-999.0000,4.3,-999,5.5,93.0,,-999.0000,30.7750,-999.0000,12.8
2022-05-24 14:15:00,2022-05-24 07:15:00,-999.0000,64.61,-999.00,6.1000,4.7409,-999.0000,4.6,-999,5.8,91.0,,-999.0000,30.7820,-999.0000,12.8
2022-05-24 14:30:00,2022-05-24 07:30:00,-999.0000,64.61,-999.00,6.3000,4.9387,-999.0000,5.0,-999,6.0,91.0,,-999.0000,30.7690,-999.0000,12.9
2022-05-24 14:45:00,2022-05-24 07:45:00,-999.0000,64.61,-999.00,6.5000,5.4495,-999.0000,5.1,-999,6.3,93.0,,-999.0000,30.7690,-999.0000,12.9
2022-05-24 15:00:00,2022-05-24 08:00:00,-999.0000,64.61,-999.00,6.6000,5.5486,-999.0000,5.5,-999,6.6,93.0,,-999.0000,30.7720,-999.0000,13.0
2022-05-24 15:15:00,2022-05-24 08:15:00,-999.0000,64.61,-999.00,7.2000,5.8289,-999.0000,6.0,-999,7.6,91.0,,-999.0000,30.7720,-999.0000,13.1
2022-05-24 15:30:00,2022-05-24 08:30:00,-999.0000,64.61,-999.00,7.9000,6.3606,-999.0000,6.7,-999,8.4,90.0,,-999.0000,30.7650,-999.0000,13.3
2022-05-24 15:45:00,2022-05-24 08:45:00,-999.0000,64.61,-999.00,8.2000,5.8278,-999.0000,7.6,-999,9.0,85.0,,-999.0000,30.7650,-999.0000,13.9
2022-05-24 16:00:00,2022-05-24 09:00:00,-999.0000,64.61,-999.00,9.0000,4.8048,-999.0000,8.3,-999,9.4,75.0,,-999.0000,30.7690,-999.0000,14.5
2022-05-24 16:15:00,2022-05-24 09:15:00,-999.0000,64.61,-999.00,9.8000,4.9907,-999.0000,9.2,-999,9.8,72.0,,-999.0000,30.7690,-999.0000,14.2
2022-05-24 16:30:00,2022-05-24 09:30:00,-999.0000,64.61,-999.00,10.3000,5.2703,-999.0000,10.1,-999,10.3,71.0,,-999.0000,30.7690,-999.0000,14.5
2022-05-24 16:45:00,2022-05-24 09:45:00,-999.0000,64.61,-999.00,11.1000,5.2018,-999.0000,10.9,-999,11.2,67.0,,-999.0000,30.7620,-999.0000,14.1
2022-05-24 17:00:00,2022-05-24 10:00:00,-999.0000,64.61,-999.00,11.9000,4.1380,-999.0000,12.9,-999,12.2,59.0,,-999.0000,30.7720,-999.0000,14.3
2022-05-24 17:15:00,2022-05-24 10:15:00,-999.0000,64.61,-999.00,12.4000,5.5508,-999.0000,14.6,-999,12.6,63.0,,-999.0000,30.7690,-999.0000,14.0
2022-05-24 17:30:00,2022-05-24 10:30:00,-999.0000,64.61,-999.00,12.9000,4.8325,-999.0000,15.9,-999,13.3,58.0,,-999.0000,30.7750,-999.0000,14.1
2022-05-24 17:45:00,2022-05-24 10:45:00,-999.0000,64.61,-999.00,13.2000,2.7132,-999.0000,17.3,-999,13.7,49.0,,-999.0000,30.7690,-999.0000,14.2
2022-05-24 18:00:00,2022-05-24 11:00:00,-999.0000,64.61,-999.00,14.3000,1.8819,-999.0000,18.8,-999,14.6,43.0,,-999.0000,30.7650,-999.0000,14.2
2022-05-24 18:15:00,2022-05-24 11:15:00,-999.0000,64.61,-999.00,14.5000,3.0126,-999.0000,20.3,-999,14.9,46.0,,-999.0000,30.7690,-999.0000,13.9
2022-05-24 18:30:00,2022-05-24 11:30:00,-999.0000,64.61,-999.00,14.0000,4.0177,-999.0000,20.6,-999,14.7,51.0,,-999.0000,30.7720,-999.0000,14.4
2022-05-24 18:45:00,2022-05-24 11:45:00,-999.0000,64.61,-999.00,14.1000,4.9279,-999.0000,20.1,-999,14.7,54.0,,-999.0000,30.7790,-999.0000,13.8
2022-05-24 19:00:00,2022-05-24 12:00:00,-999.0000,64.61,-999.00,13.7000,4.5559,-999.0000,19.4,-999,14.3,54.0,,-999.0000,30.7750,-999.0000,14.1
2022-05-24 19:15:00,2022-05-24 12:15:00,-999.0000,64.61,-999.00,13.8000,4.6489,-999.0000,18.7,-999,14.4,54.0,,-999.0000,30.7720,-999.0000,13.9
2022-05-24 19:30:00,2022-05-24 12:30:00,-999.0000,64.61,-999.00,13.7000,5.3321,-999.0000,18.1,-999,14.3,57.0,,-999.0000,30.7720,-999.0000,14.2
2022-05-24 19:45:00,2022-05-24 12:45:00,-999.0000,64.61,-999.00,14.1000,4.3873,-999.0000,17.8,-999,14.8,52.0,,-999.0000,30.7720,-999.0000,14.1
2022-05-24 20:00:00,2022-05-24 13:00:00,-999.0000,64.61,-999.00,14.4000,4.9382,-999.0000,17.8,-999,15.4,53.0,,-999.0000,30.7720,-999.0000,14.0
2022-05-24 20:15:00,2022-05-24 13:15:00,-999.0000,64.61,-999.00,14.4000,3.8168,-999.0000,18.3,-999,15.6,49.0,,-999.0000,30.7620,-999.0000,13.8
2022-05-24 20:30:00,2022-05-24 13:30:00,-999.0000,64.61,-999.00,15.0000,2.8399,-999.0000,18.7,-999,16.1,44.0,,-999.0000,30.7590,-999.0000,13.8
2022-05-24 20:45:00,2022-05-24 13:45:00,-999.0000,64.61,-999.00,15.0000,2.5159,-999.0000,19.0,-999,16.2,43.0,,-999.0000,30.7520,-999.0000,13.9
2022-05-24 21:00:00,2022-05-24 14:00:00,-999.0000,64.61,-999.00,14.8000,2.0045,-999.0000,19.2,-999,16.2,42.0,,-999.0000,30.7450,-999.0000,14.1
2022-05-24 21:15:00,2022-05-24 14:15:00,-999.0000,64.61,-999.00,15.0000,1.1491,-999.0000,19.2,-999,15.7,39.0,,-999.0000,30.7490,-999.0000,14.0
2022-05-24 21:30:00,2022-05-24 14:30:00,-999.0000,64.61,-999.00,15.0000,2.5159,-999.0000,18.8,-999,15.5,43.0,,-999.0000,30.7490,-999.0000,14.4
2022-05-24 21:45:00,2022-05-24 14:45:00,-999.0000,64.61,-999.00,14.6000,1.8238,-999.0000,18.5,-999,15.2,42.0,,-999.0000,30.7420,-999.0000,13.9
2022-05-24 22:00:00,2022-05-24 15:00:00,-999.0000,64.61,-999.00,14.5000,2.3859,-999.0000,18.0,-999,14.9,44.0,,-999.0000,30.7490,-999.0000,14.3
2022-05-24 22:15:00,2022-05-24 15:15:00,-999.0000,64.61,-999.00,13.8000,2.6763,-999.0000,17.4,-999,14.1,47.0,,-999.0000,30.7520,-999.0000,14.1
2022-05-24 22:30:00,2022-05-24 15:30:00,-999.0000,64.61,-999.00,13.0000,3.9048,-999.0000,16.6,-999,13.4,54.0,,-999.0000,30.7550,-999.0000,14.0
2022-05-24 22:45:00,2022-05-24 15:45:00,-999.0000,64.61,-999.00,12.0000,7.5083,-999.0000,15.9,-999,12.6,74.0,,-999.0000,30.7490,-999.0000,14.3
2022-05-24 23:00:00,2022-05-24 16:00:00,-999.0000,64.62,-999.00,10.4000,8.1584,-999.0000,15.2,-999,11.0,86.0,,-999.0000,30.7490,-999.0000,14.4
2022-05-24 23:15:00,2022-05-24 16:15:00,-999.0000,64.62,-999.00,9.6000,8.2025,-999.0000,14.3,-999,9.9,91.0,,-999.0000,30.7450,-999.0000,14.2
2022-05-24 23:30:00,2022-05-24 16:30:00,-999.0000,64.62,-999.00,9.3000,8.2258,-999.0000,13.2,-999,9.6,93.0,,-999.0000,30.7390,-999.0000,13.9
2022-05-24 23:45:00,2022-05-24 16:45:00,-999.0000,64.63,-999.00,9.1000,8.0275,-999.0000,12.3,-999,9.4,93.0,,-999.0000,30.7420,-999.0000,14.1
2022-05-25 00:00:00,2022-05-24 17:00:00,-999.0000,64.63,-999.00,9.1000,8.0275,-999.0000,11.6,-999,9.2,93.0,,-999.0000,30.7420,-999.0000,14.3
2022-05-25 00:15:00,2022-05-24 17:15:00,-999.0000,64.64,-999.00,9.1000,8.0275,-999.0000,11.3,-999,9.3,93.0,,-999.0000,30.7420,-999.0000,14.4
2022-05-25 00:30:00,2022-05-24 17:30:00,-999.0000,64.64,-999.00,8.8000,7.7301,-999.0000,10.9,-999,9.1,93.0,,-999.0000,30.7450,-999.0000,14.5
2022-05-25 00:45:00,2022-05-24 17:45:00,-999.0000,64.64,-999.00,8.8000,8.3498,-999.0000,10.4,-999,9.0,97.0,,-999.0000,30.7490,-999.0000,13.9
2022-05-25 01:00:00,2022-05-24 18:00:00,-999.0000,64.64,-999.00,8.7000,7.7879,-999.0000,10.2,-999,8.9,94.0,,-999.0000,30.7420,-999.0000,14.5
2022-05-25 01:15:00,2022-05-24 18:15:00,-999.0000,64.64,-999.00,8.5000,7.7446,-999.0000,9.9,-999,8.8,95.0,,-999.0000,30.7350,-999.0000,14.1
2022-05-25 01:30:00,2022-05-24 18:30:00,-999.0000,64.64,-999.00,8.5000,7.8985,-999.0000,9.7,-999,8.7,96.0,,-999.0000,30.7390,-999.0000,14.3
2022-05-25 01:45:00,2022-05-24 18:45:00,-999.0000,64.64,-999.00,8.3000,7.3908,-999.0000,9.5,-999,8.5,94.0,,-999.0000,30.7350,-999.0000,14.0
2022-05-25 02:00:00,2022-05-24 19:00:00,-999.0000,64.64,-999.00,7.9000,7.3013,-999.0000,9.2,-999,8.2,96.0,,-999.0000,30.7320,-999.0000,13.5
2022-05-25 02:15:00,2022-05-24 19:15:00,-999.0000,64.64,-999.00,7.7000,7.1023,-999.0000,9.0,-999,7.9,96.0,,-999.0000,30.7320,-999.0000,13.0
2022-05-25 02:30:00,2022-05-24 19:30:00,-999.0000,64.64,-999.00,7.7000,7.1023,-999.0000,8.6,-999,7.9,96.0,,-999.0000,30.7190,-999.0000,13.2
2022-05-25 02:45:00,2022-05-24 19:45:00,-999.0000,64.64,-999.00,7.6000,7.0028,-999.0000,8.5,-999,7.9,96.0,,-999.0000,30.7120,-999.0000,13.2
2022-05-25 03:00:00,2022-05-24 20:00:00,-999.0000,64.64,-999.00,7.6000,6.8500,-999.0000,8.1,-999,7.8,95.0,,-999.0000,30.7150,-999.0000,13.1
2022-05-25 03:15:00,2022-05-24 20:15:00,-999.0000,64.64,-999.00,7.4000,6.6512,-999.0000,8.1,-999,7.6,95.0,,-999.0000,30.7090,-999.0000,12.9
2022-05-25 03:30:00,2022-05-24 20:30:00,-999.0000,64.64,-999.00,7.3000,6.5518,-999.0000,7.9,-999,7.4,95.0,,-999.0000,30.7090,-999.0000,12.9
2022-05-25 03:45:00,2022-05-24 20:45:00,-999.0000,64.64,-999.00,7.2000,6.4524,-999.0000,7.6,-999,7.2,95.0,,-999.0000,30.7120,-999.0000,12.9
2022-05-25 04:00:00,2022-05-24 21:00:00,-999.0000,64.64,-999.00,6.9000,6.0009,-999.0000,7.2,-999,7.0,94.0,,-999.0000,30.7020,-999.0000,12.9
2022-05-25 04:15:00,2022-05-24 21:15:00,-999.0000,64.64,-999.00,6.9000,6.0009,-999.0000,7.2,-999,6.9,94.0,,-999.0000,30.6990,-999.0000,12.8
2022-05-25 04:30:00,2022-05-24 21:30:00,-999.0000,64.64,-999.00,6.8000,5.9016,-999.0000,7.1,-999,6.8,94.0,,-999.0000,30.7020,-999.0000,12.8
2022-05-25 04:45:00,2022-05-24 21:45:00,-999.0000,64.64,-999.00,6.7000,5.8023,-999.0000,6.9,-999,6.8,94.0,,-999.0000,30.7120,-999.0000,12.8
2022-05-25 05:00:00,2022-05-24 22:00:00,-999.0000,64.64,-999.00,6.7000,5.8023,-999.0000,6.5,-999,6.7,94.0,,-999.0000,30.7050,-999.0000,12.8
2022-05-25 05:15:00,2022-05-24 22:15:00,-999.0000,64.64,-999.00,6.7000,5.8023,-999.0000,6.5,-999,6.7,94.0,,-999.0000,30.7020,-999.0000,12.8
2022-05-25 05:30:00,2022-05-24 22:30:00,-999.0000,64.64,-999.00,6.8000,5.9016,-999.0000,6.5,-999,6.7,94.0,,-999.0000,30.7020,-999.0000,12.8
2022-05-25 05:45:00,2022-05-24 22:45:00,-999.0000,64.64,-999.00,6.8000,5.9016,-999.0000,6.4,-999,6.7,94.0,,-999.0000,30.6990,-999.0000,12.8
2022-05-25 06:00:00,2022-05-24 23:00:00,-999.0000,64.64,-999.00,6.7000,5.9554,-999.0000,6.2,-999,6.6,95.0,,-999.0000,30.6950,-999.0000,12.8
2022-05-25 06:15:00,2022-05-24 23:15:00,-999.0000,64.64,-999.00,6.7000,6.2573,-999.0000,6.2,-999,6.5,97.0,,-999.0000,30.6950,-999.0000,12.7
2022-05-25 06:30:00,2022-05-24 23:30:00,-999.0000,64.64,-999.00,6.6000,6.3064,-999.0000,6.2,-999,6.5,98.0,,-999.0000,30.6920,-999.0000,12.7
2022-05-25 06:45:00,2022-05-24 23:45:00,-999.0000,64.64,-999.00,6.7000,6.4062,-999.0000,6.2,-999,6.5,98.0,,-999.0000,30.6950,-999.0000,12.7